M I D A S
Marine Information and Data Acquisition System
Tripno 1771 of the Zeeleeuw from 2009-09-07 06:59:02 to 2009-09-07 16:10:13
Back to CruiseResearch ActivitiesStationsMapUnderway DataData graphs

EquipmentUnitsComment
TimeDGPSUTC
LatitudeDGPSDM.mWGS84
LongitudeDGPSDM.mWGS84
TemperatureSBE03/SBE38deg celciusITS90
ConductivitySBE21S/mITS90
SalinitySBE21 Practical Salinity Units
ChlorophylAChelsea fluorimeterg/lCalibrated in Aceton
Missing or incorrect values are displayed as -999
Sea surface data collected by the RV Zeeleeuw from 2009-09-07 06:49:17 to 2009-09-07 18:52:51
                                                                                    Next 1000 lines
Time Latitude Longitude Temperature Conductivity Salinity ChlorophylA
2009-09-07 06:49:26 51°13.662 2°55.952 18.9308 0.065568 0.35709 7.705445
2009-09-07 06:49:31 51°13.663 2°55.949 18.958 0.065568 0.35709 7.705445
2009-09-07 06:49:37 51°13.664 2°55.945 18.9425 0.065568 0.35709 7.705445
2009-09-07 06:49:42 51°13.665 2°55.941 18.9509 0.065568 0.357097 7.705445
2009-09-07 06:49:47 51°13.667 2°55.936 18.963 0.065568 0.357097 7.705445
2009-09-07 06:49:53 51°13.668 2°55.93 18.9577 0.065465 0.356525 7.705445
2009-09-07 06:49:59 51°13.67 2°55.924 18.9729 0.065568 0.357103 7.705445
2009-09-07 06:50:05 51°13.672 2°55.917 18.959 0.065568 0.357103 7.705445
2009-09-07 06:50:10 51°13.674 2°55.911 18.9492 0.065568 0.357103 7.705445
2009-09-07 06:50:15 51°13.676 2°55.905 18.9489 0.065568 0.357109 7.705445
2009-09-07 06:50:20 51°13.677 2°55.898 18.9507 0.065568 0.357109 7.705445
2009-09-07 06:50:25 51°13.679 2°55.89 18.9528 0.065568 0.357115 7.705445
2009-09-07 06:50:30 51°13.681 2°55.883 18.9674 0.065568 0.357122 7.705445
2009-09-07 06:50:35 51°13.683 2°55.875 18.9636 0.065568 0.357122 7.705445
2009-09-07 06:50:40 51°13.684 2°55.867 18.9951 0.065568 0.357122 7.705445
2009-09-07 06:50:45 51°13.686 2°55.859 18.9818 0.065568 0.357128 7.705445
2009-09-07 06:50:50 51°13.687 2°55.851 18.9803 0.065568 0.357128 7.705445
2009-09-07 06:50:55 51°13.689 2°55.843 18.9802 0.065568 0.357134 7.705445
2009-09-07 06:51:00 51°13.69 2°55.835 18.9806 0.065568 0.357134 7.705445
2009-09-07 06:51:05 51°13.691 2°55.827 18.9814 0.065568 0.357141 7.705445
2009-09-07 06:51:10 51°13.692 2°55.82 18.9817 0.065568 0.357141 7.705445
2009-09-07 06:51:15 51°13.693 2°55.812 18.9821 0.065568 0.357141 7.705445
2009-09-07 06:51:20 51°13.693 2°55.805 18.9822 0.065568 0.357141 7.705445
2009-09-07 06:51:25 51°13.694 2°55.798 18.9832 0.065568 0.357147 7.705445
2009-09-07 06:51:30 51°13.694 2°55.791 18.9831 0.065568 0.357147 7.705445
2009-09-07 06:51:35 51°13.694 2°55.784 18.9831 0.065568 0.357153 7.705445
2009-09-07 06:51:40 51°13.694 2°55.778 18.9841 0.065568 0.357153 7.705445
2009-09-07 06:51:45 51°13.694 2°55.772 18.985 0.065568 0.357153 7.705445
2009-09-07 06:51:50 51°13.694 2°55.766 18.9862 0.065568 0.357159 7.705445
2009-09-07 06:51:55 51°13.694 2°55.761 18.9875 0.065568 0.357159 7.705445
2009-09-07 06:52:00 51°13.694 2°55.756 18.9986 0.065568 0.357166 7.705445
2009-09-07 06:52:05 51°13.694 2°55.753 19.0034 0.065568 0.357159 7.705445
2009-09-07 06:52:10 51°13.694 2°55.751 19.0103 0.065568 0.357159 7.705445
2009-09-07 06:52:15 51°13.694 2°55.751 19.0061 0.065568 0.357166 7.705445
2009-09-07 06:52:19 51°13.695 2°55.751 19.0045 0.065568 0.357159 7.705445
2009-09-07 06:52:24 51°13.696 2°55.751 19.004 0.065568 0.357147 7.705445
2009-09-07 06:52:29 51°13.697 2°55.751 19.0038 0.065568 0.357147 7.705445
2009-09-07 06:52:34 51°13.698 2°55.751 19.0027 0.065568 0.357147 7.705445
2009-09-07 06:52:38 51°13.699 2°55.752 19.0013 0.065568 0.357147 7.705445
2009-09-07 06:52:43 51°13.701 2°55.752 18.9939 0.065568 0.357153 7.705445
2009-09-07 06:52:48 51°13.702 2°55.753 18.9937 0.065568 0.357166 7.705445
2009-09-07 06:52:53 51°13.703 2°55.753 18.986 0.065568 0.357172 7.705445
2009-09-07 06:52:58 51°13.704 2°55.753 18.9901 0.065568 0.357185 7.705445
2009-09-07 06:53:03 51°13.704 2°55.753 18.9878 0.065568 0.357191 7.705445
2009-09-07 06:53:07 51°13.704 2°55.752 18.9528 0.065568 0.357191 7.705445
2009-09-07 06:53:12 51°13.703 2°55.752 18.9778 0.065568 0.357197 7.705445
2009-09-07 06:53:17 51°13.702 2°55.751 18.9701 0.065568 0.357197 7.705445
2009-09-07 06:53:22 51°13.701 2°55.751 18.9796 0.065568 0.357203 7.705445
2009-09-07 06:53:27 51°13.7 2°55.75 18.989 0.065568 0.357203 7.705445
2009-09-07 06:53:31 51°13.7 2°55.75 18.9895 0.065568 0.357203 7.705445
2009-09-07 06:53:36 51°13.7 2°55.749 18.9968 0.065568 0.357203 7.705445
2009-09-07 06:53:41 51°13.7 2°55.749 19 0.065568 0.357203 7.705445
2009-09-07 06:53:47 51°13.701 2°55.748 19.0183 0.065568 0.357197 7.705445
2009-09-07 06:53:51 51°13.702 2°55.747 19.032 0.065568 0.357197 7.705445
2009-09-07 06:53:56 51°13.704 2°55.746 19.0374 0.065568 0.357197 7.705445
2009-09-07 06:54:01 51°13.707 2°55.744 19.035 0.065568 0.357197 7.705445
2009-09-07 06:54:07 51°13.71 2°55.74 19.0354 0.065568 0.357197 7.705445
2009-09-07 06:54:11 51°13.713 2°55.737 19.0288 0.065568 0.357197 7.705445
2009-09-07 06:54:16 51°13.717 2°55.733 19.0268 0.065568 0.357191 7.705445
2009-09-07 06:54:22 51°13.723 2°55.728 19.0075 0.065568 0.357197 7.705445
2009-09-07 06:54:27 51°13.729 2°55.722 19.004 0.065568 0.357197 7.705445
2009-09-07 06:54:31 51°13.734 2°55.718 19.0055 0.065568 0.357203 7.705445
2009-09-07 06:54:35 51°13.739 2°55.713 19.0012 0.065568 0.357203 7.705445
2009-09-07 06:54:42 51°13.748 2°55.704 18.9932 0.065568 0.35721 7.705445
2009-09-07 06:54:46 51°13.754 2°55.699 18.9857 0.065568 0.35721 7.705445
2009-09-07 06:54:51 51°13.762 2°55.692 18.9938 0.065568 0.357216 7.705445
2009-09-07 06:54:56 51°13.77 2°55.686 18.9908 0.065568 0.357222 7.705445
2009-09-07 06:55:01 51°13.778 2°55.679 18.9911 0.065568 0.357229 7.705445
2009-09-07 06:55:07 51°13.789 2°55.67 18.9952 0.065568 0.357229 7.705445
2009-09-07 06:55:11 51°13.796 2°55.664 18.9994 0.065568 0.357235 7.705445
2009-09-07 06:55:16 51°13.805 2°55.657 18.9961 0.065568 0.357241 7.705445
2009-09-07 06:55:21 51°13.815 2°55.649 18.9967 0.065568 0.357235 7.705445
2009-09-07 06:55:27 51°13.826 2°55.64 18.9912 0.065568 0.357241 7.705445
2009-09-07 06:55:31 51°13.834 2°55.634 18.9982 0.065568 0.357241 7.705445
2009-09-07 06:55:36 51°13.844 2°55.626 18.9986 0.065568 0.357241 7.705445
2009-09-07 06:55:42 51°13.856 2°55.617 18.9957 0.065568 0.357241 7.670621
2009-09-07 06:55:46 51°13.865 2°55.611 18.999 0.065568 0.357241 7.705445
2009-09-07 06:55:51 51°13.875 2°55.603 19.005 0.065568 0.357247 7.705445
2009-09-07 06:55:56 51°13.886 2°55.594 19.0074 0.065568 0.357247 7.705445
2009-09-07 06:56:01 51°13.897 2°55.586 19.004 0.065568 0.357254 7.705445
2009-09-07 06:56:07 51°13.91 2°55.576 19.0004 0.065568 0.357254 7.705445
2009-09-07 06:56:11 51°13.919 2°55.569 19.0038 0.065568 0.35726 7.705445
2009-09-07 06:56:17 51°13.932 2°55.558 19.0066 0.065568 0.357266 7.705445
2009-09-07 06:56:22 51°13.943 2°55.549 19.0009 0.065568 0.357266 7.705445
2009-09-07 06:56:26 51°13.953 2°55.542 19.0076 0.065568 0.357273 7.705445
2009-09-07 06:56:31 51°13.964 2°55.534 19.0107 0.065568 0.357279 7.705445
2009-09-07 06:56:36 51°13.976 2°55.525 19.0203 0.065568 0.357279 7.705445
2009-09-07 06:56:42 51°13.99 2°55.514 19.0073 0.065568 0.357285 7.705445
2009-09-07 06:56:46 51°14 2°55.507 19.0031 0.065568 0.357285 7.705445
2009-09-07 06:56:51 51°14.011 2°55.498 18.9965 0.065568 0.357285 7.705445
2009-09-07 06:56:56 51°14.023 2°55.488 18.9993 0.065568 0.357285 7.705445
2009-09-07 06:57:02 51°14.037 2°55.477 18.9792 0.065568 0.357279 7.705445
2009-09-07 06:57:07 51°14.05 2°55.468 19.0173 0.065568 0.357279 7.705445
2009-09-07 06:57:11 51°14.059 2°55.46 19.0214 0.065568 0.357285 7.705445
2009-09-07 06:57:16 51°14.071 2°55.451 19.0304 0.065465 0.356707 7.670621
2009-09-07 06:57:22 51°14.085 2°55.44 19.0185 0.065568 0.357285 7.705445
2009-09-07 06:57:26 51°14.095 2°55.432 19.0175 0.065465 0.356713 7.705445
2009-09-07 06:57:31 51°14.107 2°55.422 19.0042 0.065465 0.356713 7.705445
2009-09-07 06:57:36 51°14.119 2°55.411 19.0248 0.065465 0.356713 7.705445
2009-09-07 06:57:41 51°14.13 2°55.401 19.0244 0.065568 0.357298 7.705445
2009-09-07 06:57:47 51°14.145 2°55.388 19.0317 0.065465 0.356726 7.705445
2009-09-07 06:57:51 51°14.154 2°55.379 19.0289 0.065465 0.356732 7.705445
2009-09-07 06:57:55 51°14.163 2°55.37 19.0311 0.065465 0.356732 7.705445
2009-09-07 06:58:01 51°14.177 2°55.356 19.0359 0.065465 0.356738 7.705445
2009-09-07 06:58:06 51°14.188 2°55.344 19.0134 0.065465 0.356738 7.705445
2009-09-07 06:58:11 51°14.199 2°55.331 19.015 0.065465 0.356738 7.705445
2009-09-07 06:58:17 51°14.212 2°55.315 19.0341 0.065465 0.356744 7.670621
2009-09-07 06:58:22 51°14.223 2°55.302 19.0375 0.065465 0.356751 7.705445
2009-09-07 06:58:26 51°14.231 2°55.29 19.0236 0.065465 0.356751 7.670621
2009-09-07 06:58:31 51°14.241 2°55.275 19.0287 0.065465 0.356757 7.670621
2009-09-07 06:58:37 51°14.253 2°55.256 19.0355 0.065465 0.356757 7.670621
2009-09-07 06:58:42 51°14.263 2°55.24 19.0235 0.065465 0.356763 7.670621
2009-09-07 06:58:46 51°14.27 2°55.227 19.0374 0.065465 0.356763 7.705445
2009-09-07 06:58:51 51°14.28 2°55.21 19.0379 0.065465 0.35677 7.670621
2009-09-07 06:58:56 51°14.289 2°55.193 19.0388 0.065465 0.356776 7.705445
2009-09-07 06:59:02 51°14.3 2°55.172 19.0096 0.065465 0.356776 7.705445
2009-09-07 06:59:07 51°14.309 2°55.154 18.9805 0.065465 0.356776 7.705445
2009-09-07 06:59:11 51°14.316 2°55.14 19.0111 0.065465 0.356776 7.670621
2009-09-07 06:59:16 51°14.325 2°55.122 19.0247 0.065465 0.356782 7.705445
2009-09-07 06:59:22 51°14.336 2°55.101 19.0217 0.065465 0.356788 7.705445
2009-09-07 06:59:26 51°14.344 2°55.086 19.0098 0.065465 0.356795 7.705445
2009-09-07 06:59:31 51°14.353 2°55.068 19.007 0.065465 0.356795 7.705445
2009-09-07 06:59:36 51°14.362 2°55.05 19.0307 0.065465 0.356795 7.705445
2009-09-07 06:59:41 51°14.372 2°55.033 19.0579 0.065465 0.356795 7.670621
2009-09-07 06:59:47 51°14.383 2°55.012 19.0613 0.065465 0.356801 7.705445
2009-09-07 06:59:51 51°14.39 2°54.998 19.0353 0.065465 0.356814 7.670621
2009-09-07 06:59:56 51°14.399 2°54.979 19.0357 0.065465 0.356814 7.705445
2009-09-07 07:00:01 51°14.407 2°54.96 19.0165 0.065465 0.356814 7.705445
2009-09-07 07:00:07 51°14.418 2°54.937 19.0365 0.065465 0.356814 7.705445
2009-09-07 07:00:11 51°14.425 2°54.922 19.0265 0.065465 0.35682 7.705445
2009-09-07 07:00:17 51°14.435 2°54.899 19.0421 0.065465 0.35682 7.705445
2009-09-07 07:00:22 51°14.444 2°54.88 19.051 0.065465 0.356826 7.705445
2009-09-07 07:00:26 51°14.451 2°54.865 19.0488 0.065465 0.356832 7.670621
2009-09-07 07:00:31 51°14.46 2°54.846 19.0416 0.065465 0.356839 7.705445
2009-09-07 07:00:37 51°14.47 2°54.821 19.0412 0.065465 0.356839 7.705445
2009-09-07 07:00:42 51°14.478 2°54.8 19.0442 0.065465 0.356845 7.705445
2009-09-07 07:00:47 51°14.487 2°54.779 19.024 0.065465 0.356845 7.670621
2009-09-07 07:00:51 51°14.494 2°54.761 19.0291 0.065465 0.356845 7.670621
2009-09-07 07:00:56 51°14.502 2°54.74 19.0384 0.065465 0.356851 7.705445
2009-09-07 07:01:02 51°14.513 2°54.714 19.0659 0.065465 0.356858 7.705445
2009-09-07 07:01:06 51°14.52 2°54.696 19.0773 0.065465 0.356858 7.705445
2009-09-07 07:01:11 51°14.528 2°54.674 19.0512 0.065465 0.35687 7.705445
2009-09-07 07:01:16 51°14.536 2°54.651 19.0031 0.065465 0.356876 7.670621
2009-09-07 07:01:22 51°14.545 2°54.623 19.0274 0.065465 0.356876 7.670621
2009-09-07 07:01:27 51°14.553 2°54.6 19.0458 0.065465 0.356876 7.670621
2009-09-07 07:01:31 51°14.559 2°54.581 19.039 0.065465 0.356883 7.670621
2009-09-07 07:01:35 51°14.565 2°54.563 19.0199 0.065465 0.356883 7.670621
2009-09-07 07:01:41 51°14.574 2°54.534 19.045 0.065465 0.356889 7.670621
2009-09-07 07:01:47 51°14.583 2°54.506 19.0427 0.065465 0.356889 7.705445
2009-09-07 07:01:51 51°14.589 2°54.487 19.0437 0.065465 0.356889 7.705445
2009-09-07 07:01:56 51°14.596 2°54.464 19.0372 0.065465 0.356895 7.670621
2009-09-07 07:02:01 51°14.603 2°54.44 19.042 0.065465 0.356902 7.670621
2009-09-07 07:02:07 51°14.612 2°54.412 19.06 0.065465 0.356902 7.670621
2009-09-07 07:02:11 51°14.618 2°54.393 19.0433 0.065465 0.356908 7.670621
2009-09-07 07:02:16 51°14.625 2°54.369 19.0324 0.065465 0.356914 7.670621
2009-09-07 07:02:22 51°14.634 2°54.34 19.0328 0.065465 0.356927 7.670621
2009-09-07 07:02:27 51°14.641 2°54.317 19.0487 0.065465 0.356927 7.670621
2009-09-07 07:02:32 51°14.648 2°54.293 19.0249 0.065465 0.356933 7.670621
2009-09-07 07:02:36 51°14.654 2°54.274 19.045 0.065465 0.356933 7.670621
2009-09-07 07:02:42 51°14.663 2°54.246 19.0455 0.065465 0.356939 7.670621
2009-09-07 07:02:46 51°14.669 2°54.227 19.0485 0.065465 0.356939 7.670621
2009-09-07 07:02:51 51°14.676 2°54.204 19.0526 0.065465 0.356946 7.670621
2009-09-07 07:02:56 51°14.683 2°54.18 19.0441 0.065465 0.356946 7.670621
2009-09-07 07:03:01 51°14.691 2°54.157 19.0403 0.065465 0.356952 7.705445
2009-09-07 07:03:07 51°14.7 2°54.129 19.0667 0.065465 0.356952 7.705445
2009-09-07 07:03:11 51°14.706 2°54.11 19.04 0.065465 0.356958 7.670621
2009-09-07 07:03:15 51°14.711 2°54.092 19.0366 0.065465 0.356958 7.670621
2009-09-07 07:03:22 51°14.722 2°54.059 19.0363 0.065465 0.356964 7.670621
2009-09-07 07:03:26 51°14.728 2°54.04 19.0389 0.065465 0.356971 7.670621
2009-09-07 07:03:31 51°14.736 2°54.017 19.0414 0.065465 0.356977 7.670621
2009-09-07 07:03:36 51°14.743 2°53.994 19.0501 0.065465 0.356977 7.670621
2009-09-07 07:03:42 51°14.752 2°53.966 19.0637 0.065465 0.356983 7.670621
2009-09-07 07:03:47 51°14.759 2°53.943 19.0597 0.065465 0.356996 7.670621
2009-09-07 07:03:51 51°14.765 2°53.924 19.0456 0.065465 0.356996 7.670621
2009-09-07 07:03:56 51°14.772 2°53.901 19.0567 0.065465 0.357009 7.670621
2009-09-07 07:04:01 51°14.779 2°53.878 19.0555 0.065465 0.357009 7.670621
2009-09-07 07:04:07 51°14.787 2°53.849 19.0661 0.065465 0.357009 7.670621
2009-09-07 07:04:11 51°14.793 2°53.831 19.0445 0.065465 0.357015 7.670621
2009-09-07 07:04:16 51°14.799 2°53.806 19.0538 0.065465 0.357021 7.670621
2009-09-07 07:04:22 51°14.806 2°53.777 19.0648 0.065465 0.357027 7.670621
2009-09-07 07:04:26 51°14.811 2°53.758 19.0584 0.065465 0.357034 7.670621
2009-09-07 07:04:31 51°14.816 2°53.734 19.06 0.065465 0.35704 7.670621
2009-09-07 07:04:36 51°14.822 2°53.709 19.0557 0.065465 0.35704 7.670621
2009-09-07 07:04:41 51°14.827 2°53.684 19.061 0.065465 0.357046 7.670621
2009-09-07 07:04:47 51°14.834 2°53.654 19.0635 0.065465 0.357046 7.670621
2009-09-07 07:04:51 51°14.838 2°53.634 19.0345 0.065465 0.357053 7.670621
2009-09-07 07:04:56 51°14.843 2°53.61 19.0479 0.065465 0.357059 7.670621
2009-09-07 07:05:01 51°14.848 2°53.585 19.0599 0.065465 0.357065 7.670621
2009-09-07 07:05:07 51°14.854 2°53.555 19.0413 0.065465 0.357065 7.670621
2009-09-07 07:05:11 51°14.859 2°53.535 19.0424 0.065465 0.357071 7.670621
2009-09-07 07:05:17 51°14.865 2°53.505 19.0567 0.065465 0.357078 7.670621
2009-09-07 07:05:22 51°14.87 2°53.48 19.0645 0.065465 0.357084 7.670621
2009-09-07 07:05:26 51°14.874 2°53.46 19.0453 0.065465 0.35709 7.670621
2009-09-07 07:05:31 51°14.88 2°53.435 19.0569 0.065465 0.357097 7.670621
2009-09-07 07:05:37 51°14.886 2°53.405 19.0507 0.065465 0.357097 7.670621
2009-09-07 07:05:42 51°14.891 2°53.381 19.0642 0.065465 0.357103 7.670621
2009-09-07 07:05:47 51°14.896 2°53.355 19.063 0.065465 0.357109 7.670621
2009-09-07 07:05:51 51°14.901 2°53.336 19.061 0.065465 0.357109 7.670621
2009-09-07 07:05:56 51°14.906 2°53.311 19.0672 0.065465 0.357122 7.670621
2009-09-07 07:06:02 51°14.912 2°53.281 19.054 0.065465 0.357122 7.670621
2009-09-07 07:06:06 51°14.916 2°53.261 19.0705 0.065465 0.357122 7.670621
2009-09-07 07:06:11 51°14.922 2°53.236 19.0659 0.065465 0.357128 7.670621
2009-09-07 07:06:16 51°14.927 2°53.211 19.0667 0.065465 0.357134 7.670621
2009-09-07 07:06:21 51°14.932 2°53.187 19.0761 0.065465 0.357141 7.670621
2009-09-07 07:06:27 51°14.939 2°53.157 19.0746 0.065465 0.357147 7.670621
2009-09-07 07:06:31 51°14.943 2°53.137 19.068 0.065465 0.357153 7.670621
2009-09-07 07:06:35 51°14.947 2°53.117 19.0607 0.065465 0.357153 7.670621
2009-09-07 07:06:41 51°14.954 2°53.087 19.06 0.065465 0.35716 7.670621
2009-09-07 07:06:47 51°14.96 2°53.057 19.0742 0.065465 0.357166 7.670621
2009-09-07 07:06:51 51°14.965 2°53.037 19.0765 0.065465 0.357172 7.670621
2009-09-07 07:06:57 51°14.971 2°53.008 19.0701 0.065465 0.357172 7.670621
2009-09-07 07:07:02 51°14.977 2°52.983 19.0679 0.065465 0.357185 7.670621
2009-09-07 07:07:06 51°14.981 2°52.963 19.0612 0.065465 0.357185 7.670621
2009-09-07 07:07:11 51°14.987 2°52.938 19.0709 0.065465 0.357191 7.670621
2009-09-07 07:07:17 51°14.994 2°52.909 19.065 0.065465 0.357191 7.670621
2009-09-07 07:07:22 51°15 2°52.884 19.0661 0.065465 0.357197 7.670621
2009-09-07 07:07:27 51°15.006 2°52.859 19.0602 0.065465 0.357204 7.670621
2009-09-07 07:07:31 51°15.011 2°52.839 19.075 0.065465 0.35721 7.670621
2009-09-07 07:07:36 51°15.017 2°52.815 19.0738 0.065465 0.35721 7.670621
2009-09-07 07:07:42 51°15.024 2°52.785 19.0771 0.065465 0.357216 7.670621
2009-09-07 07:07:46 51°15.029 2°52.766 19.0809 0.065465 0.357223 7.670621
2009-09-07 07:07:51 51°15.035 2°52.741 19.0881 0.065465 0.357229 7.670621
2009-09-07 07:07:57 51°15.042 2°52.711 19.0766 0.065465 0.357235 7.670621
2009-09-07 07:08:02 51°15.048 2°52.686 19.0847 0.065465 0.357242 7.670621
2009-09-07 07:08:07 51°15.054 2°52.661 19.0865 0.065465 0.357242 7.670621
2009-09-07 07:08:11 51°15.058 2°52.641 19.0796 0.065465 0.357248 7.670621
2009-09-07 07:08:15 51°15.062 2°52.621 19.0776 0.065465 0.357254 7.670621
2009-09-07 07:08:22 51°15.07 2°52.586 19.0783 0.065465 0.357254 7.670621
2009-09-07 07:08:27 51°15.075 2°52.56 19.073 0.065465 0.35726 7.670621
2009-09-07 07:08:31 51°15.08 2°52.54 19.0704 0.065465 0.357267 7.670621
2009-09-07 07:08:36 51°15.085 2°52.515 19.0719 0.065465 0.357267 7.670621
2009-09-07 07:08:41 51°15.09 2°52.49 19.0745 0.065465 0.357273 7.670621
2009-09-07 07:08:47 51°15.097 2°52.46 19.0799 0.065465 0.357273 7.670621
2009-09-07 07:08:51 51°15.102 2°52.44 19.0815 0.065465 0.357279 7.670621
2009-09-07 07:08:56 51°15.107 2°52.415 19.0712 0.065465 0.357286 7.670621
2009-09-07 07:09:02 51°15.114 2°52.385 19.0846 0.065465 0.357292 7.670621
2009-09-07 07:09:06 51°15.119 2°52.365 19.09 0.065465 0.357292 7.670621
2009-09-07 07:09:11 51°15.125 2°52.34 19.0732 0.065465 0.357298 7.670621
2009-09-07 07:09:16 51°15.132 2°52.316 19.0897 0.065465 0.357305 7.670621
2009-09-07 07:09:22 51°15.139 2°52.286 19.0919 0.065465 0.357311 7.670621
2009-09-07 07:09:26 51°15.144 2°52.266 19.0857 0.065465 0.357317 7.670621
2009-09-07 07:09:31 51°15.15 2°52.241 19.0743 0.065465 0.357323 7.670621
2009-09-07 07:09:36 51°15.157 2°52.217 19.0832 0.065465 0.357323 7.670621
2009-09-07 07:09:41 51°15.163 2°52.192 19.0744 0.065465 0.357323 7.670621
2009-09-07 07:09:47 51°15.171 2°52.163 19.0851 0.065465 0.35733 7.670621
2009-09-07 07:09:51 51°15.177 2°52.143 19.0807 0.065465 0.357336 7.670621
2009-09-07 07:09:57 51°15.185 2°52.113 19.0873 0.065465 0.357342 7.670621
2009-09-07 07:10:02 51°15.192 2°52.089 19.0838 0.065465 0.357349 7.670621
2009-09-07 07:10:06 51°15.197 2°52.069 19.0951 0.065465 0.357349 7.670621
2009-09-07 07:10:11 51°15.204 2°52.044 19.0896 0.065362 0.356776 7.670621
2009-09-07 07:10:16 51°15.21 2°52.02 19.0712 0.065465 0.357355 7.670621
2009-09-07 07:10:22 51°15.219 2°51.99 19.0888 0.065362 0.356782 7.670621
2009-09-07 07:10:27 51°15.225 2°51.965 19.1021 0.065362 0.356788 7.670621
2009-09-07 07:10:31 51°15.231 2°51.945 19.0991 0.065465 0.357374 7.670621
2009-09-07 07:10:36 51°15.237 2°51.921 19.1232 0.065465 0.357374 7.670621
2009-09-07 07:10:41 51°15.243 2°51.897 19.0753 0.065362 0.356807 7.670621
2009-09-07 07:10:47 51°15.25 2°51.865 19.1101 0.065362 0.356807 7.670621
2009-09-07 07:10:51 51°15.255 2°51.845 19.0916 0.065362 0.35682 7.670621
2009-09-07 07:10:56 51°15.26 2°51.819 19.1183 0.065362 0.35682 7.670621
2009-09-07 07:11:02 51°15.266 2°51.788 19.1238 0.065362 0.356832 7.670621
2009-09-07 07:11:06 51°15.269 2°51.767 19.1002 0.065362 0.356832 7.670621
2009-09-07 07:11:11 51°15.272 2°51.741 19.1223 0.065362 0.356832 7.670621
2009-09-07 07:11:16 51°15.276 2°51.714 19.0946 0.065362 0.356839 7.670621
2009-09-07 07:11:21 51°15.279 2°51.687 19.1116 0.065362 0.356839 7.670621
2009-09-07 07:11:27 51°15.282 2°51.655 19.0999 0.065362 0.356845 7.635797
2009-09-07 07:11:31 51°15.283 2°51.634 19.1225 0.065362 0.356851 7.670621
2009-09-07 07:11:37 51°15.286 2°51.602 19.1041 0.065362 0.356851 7.670621
2009-09-07 07:11:42 51°15.288 2°51.575 19.0995 0.065362 0.356857 7.635797
2009-09-07 07:11:46 51°15.289 2°51.553 19.1079 0.065362 0.356857 7.670621
2009-09-07 07:11:51 51°15.291 2°51.526 19.0934 0.065362 0.356864 7.670621
2009-09-07 07:11:57 51°15.292 2°51.493 19.0923 0.065362 0.35687 7.670621
2009-09-07 07:12:02 51°15.294 2°51.466 19.0993 0.065362 0.35687 7.670621
2009-09-07 07:12:07 51°15.295 2°51.439 19.11 0.065362 0.35687 7.670621
2009-09-07 07:12:11 51°15.296 2°51.417 19.1048 0.065362 0.356883 7.635797
2009-09-07 07:12:16 51°15.298 2°51.389 19.1087 0.065362 0.356883 7.670621
2009-09-07 07:12:22 51°15.299 2°51.357 19.1016 0.065362 0.356889 7.670621
2009-09-07 07:12:26 51°15.301 2°51.335 19.1149 0.065362 0.356895 7.670621
2009-09-07 07:12:31 51°15.302 2°51.307 19.1172 0.065362 0.356902 7.670621
2009-09-07 07:12:36 51°15.304 2°51.28 19.1162 0.065362 0.356902 7.670621
2009-09-07 07:12:42 51°15.306 2°51.247 19.1148 0.065362 0.356908 7.670621
2009-09-07 07:12:47 51°15.307 2°51.22 19.0991 0.065362 0.356914 7.670621
2009-09-07 07:12:51 51°15.308 2°51.198 19.1101 0.065362 0.356914 7.670621
2009-09-07 07:12:56 51°15.31 2°51.171 19.1186 0.065362 0.35692 7.670621
2009-09-07 07:13:01 51°15.311 2°51.144 19.118 0.065362 0.356927 7.670621
2009-09-07 07:13:07 51°15.313 2°51.111 19.108 0.065362 0.356927 7.670621
2009-09-07 07:13:11 51°15.314 2°51.089 19.1158 0.065362 0.356933 7.670621
2009-09-07 07:13:15 51°15.315 2°51.067 19.1071 0.065362 0.356933 7.670621
2009-09-07 07:13:21 51°15.317 2°51.034 19.1148 0.065362 0.356939 7.635797
2009-09-07 07:13:27 51°15.319 2°51.001 19.1258 0.065362 0.356946 7.670621
2009-09-07 07:13:31 51°15.32 2°50.979 19.1179 0.065362 0.356952 7.670621
2009-09-07 07:13:37 51°15.322 2°50.947 19.1112 0.065362 0.356952 7.670621
2009-09-07 07:13:42 51°15.324 2°50.919 19.1154 0.065362 0.356958 7.635797
2009-09-07 07:13:46 51°15.325 2°50.898 19.1267 0.065362 0.356965 7.670621
2009-09-07 07:13:52 51°15.327 2°50.865 19.1161 0.065362 0.356971 7.670621
2009-09-07 07:13:56 51°15.328 2°50.843 19.1199 0.065362 0.356977 7.670621
2009-09-07 07:14:02 51°15.33 2°50.81 19.1178 0.065362 0.356977 7.635797
2009-09-07 07:14:06 51°15.331 2°50.788 19.1149 0.065362 0.356977 7.635797
2009-09-07 07:14:12 51°15.333 2°50.756 19.1241 0.065362 0.356984 7.670621
2009-09-07 07:14:16 51°15.334 2°50.734 19.1259 0.065362 0.35699 7.670621
2009-09-07 07:14:22 51°15.336 2°50.701 19.1326 0.065362 0.356996 7.670621
2009-09-07 07:14:26 51°15.338 2°50.679 19.123 0.065362 0.357002 7.670621
2009-09-07 07:14:31 51°15.339 2°50.652 19.1224 0.065362 0.357009 7.635797
2009-09-07 07:14:37 51°15.341 2°50.619 19.1364 0.065362 0.357009 7.635797
2009-09-07 07:14:42 51°15.343 2°50.591 19.1344 0.065362 0.357009 7.670621
2009-09-07 07:14:47 51°15.344 2°50.564 19.1259 0.065362 0.357021 7.635797
2009-09-07 07:14:51 51°15.346 2°50.542 19.1176 0.065362 0.357028 7.670621
2009-09-07 07:14:55 51°15.347 2°50.52 19.1313 0.065362 0.357034 7.670621
2009-09-07 07:15:02 51°15.349 2°50.482 19.128 0.065362 0.35704 7.635797
2009-09-07 07:15:07 51°15.351 2°50.455 19.1239 0.065362 0.35704 7.635797
2009-09-07 07:15:11 51°15.352 2°50.433 19.1364 0.065362 0.357047 7.635797
2009-09-07 07:15:16 51°15.354 2°50.406 19.1238 0.065362 0.357053 7.635797
2009-09-07 07:15:21 51°15.356 2°50.378 19.1372 0.065362 0.357059 7.635797
2009-09-07 07:15:27 51°15.358 2°50.345 19.1248 0.065362 0.357059 7.670621
2009-09-07 07:15:31 51°15.359 2°50.323 19.145 0.065362 0.357072 7.635797
2009-09-07 07:15:36 51°15.361 2°50.296 19.1353 0.065362 0.357072 7.635797
2009-09-07 07:15:41 51°15.363 2°50.268 19.1437 0.065362 0.357072 7.670621
2009-09-07 07:15:47 51°15.365 2°50.235 19.1374 0.065362 0.357078 7.670621
2009-09-07 07:15:51 51°15.366 2°50.214 19.1395 0.065362 0.357084 7.670621
2009-09-07 07:15:56 51°15.368 2°50.186 19.1157 0.065362 0.357097 7.635797
2009-09-07 07:16:02 51°15.37 2°50.153 19.1358 0.065362 0.357097 7.670621
2009-09-07 07:16:06 51°15.372 2°50.132 19.139 0.065362 0.357097 7.670621
2009-09-07 07:16:11 51°15.375 2°50.104 19.1437 0.065362 0.357103 7.635797
2009-09-07 07:16:17 51°15.378 2°50.072 19.147 0.065362 0.35711 7.635797
2009-09-07 07:16:22 51°15.38 2°50.045 19.121 0.065362 0.357116 7.670621
2009-09-07 07:16:26 51°15.382 2°50.023 19.1361 0.065362 0.357122 7.635797
2009-09-07 07:16:31 51°15.385 2°49.996 19.144 0.065362 0.357129 7.635797
2009-09-07 07:16:37 51°15.389 2°49.963 19.1292 0.065362 0.357129 7.635797
2009-09-07 07:16:42 51°15.391 2°49.936 19.1497 0.065362 0.357135 7.635797
2009-09-07 07:16:46 51°15.394 2°49.915 19.1485 0.065362 0.357141 7.635797
2009-09-07 07:16:51 51°15.397 2°49.888 19.1572 0.065362 0.357148 7.635797
2009-09-07 07:16:57 51°15.401 2°49.856 19.1412 0.065362 0.35716 7.635797
2009-09-07 07:17:02 51°15.404 2°49.829 19.1411 0.065362 0.35716 7.635797
2009-09-07 07:17:06 51°15.406 2°49.807 19.1371 0.065362 0.35716 7.635797
2009-09-07 07:17:11 51°15.409 2°49.78 19.1598 0.065362 0.357166 7.635797
2009-09-07 07:17:16 51°15.412 2°49.753 19.1567 0.065362 0.357173 7.635797
2009-09-07 07:17:22 51°15.416 2°49.721 19.1562 0.065362 0.357173 7.635797
2009-09-07 07:17:27 51°15.419 2°49.694 19.1377 0.065362 0.357185 7.670621
2009-09-07 07:17:31 51°15.421 2°49.672 19.1483 0.065362 0.357192 7.635797
2009-09-07 07:17:36 51°15.424 2°49.645 19.1593 0.065362 0.357192 7.635797
2009-09-07 07:17:42 51°15.428 2°49.613 19.1546 0.065362 0.357192 7.635797
2009-09-07 07:17:46 51°15.43 2°49.592 19.1394 0.065362 0.357198 7.635797
2009-09-07 07:17:51 51°15.433 2°49.565 19.1481 0.065362 0.357204 7.635797
2009-09-07 07:17:56 51°15.437 2°49.538 19.1611 0.065362 0.357211 7.635797
2009-09-07 07:18:01 51°15.44 2°49.511 19.159 0.065362 0.357217 7.635797
2009-09-07 07:18:07 51°15.444 2°49.479 19.1551 0.065362 0.357217 7.635797
2009-09-07 07:18:11 51°15.446 2°49.457 19.1391 0.065362 0.357223 7.635797
2009-09-07 07:18:17 51°15.45 2°49.425 19.1603 0.065362 0.35723 7.635797
2009-09-07 07:18:22 51°15.453 2°49.398 19.1494 0.065362 0.357236 7.635797
2009-09-07 07:18:26 51°15.456 2°49.377 19.1562 0.065259 0.356662 7.635797
2009-09-07 07:18:31 51°15.459 2°49.35 19.1571 0.065362 0.357242 7.635797
2009-09-07 07:18:37 51°15.463 2°49.318 19.1595 0.065362 0.357242 7.635797
2009-09-07 07:18:42 51°15.467 2°49.291 19.165 0.065259 0.356668 7.635797
2009-09-07 07:18:46 51°15.469 2°49.27 19.1598 0.065259 0.356675 7.635797
2009-09-07 07:18:51 51°15.473 2°49.243 19.166 0.065362 0.357261 7.635797
2009-09-07 07:18:57 51°15.477 2°49.211 19.1581 0.065259 0.356687 7.635797
2009-09-07 07:19:02 51°15.48 2°49.184 19.168 0.065259 0.356694 7.635797
2009-09-07 07:19:07 51°15.484 2°49.157 19.1683 0.065259 0.356694 7.635797
2009-09-07 07:19:11 51°15.486 2°49.136 19.1794 0.065259 0.3567 7.635797
2009-09-07 07:19:16 51°15.49 2°49.109 19.167 0.065259 0.356713 7.635797
2009-09-07 07:19:22 51°15.494 2°49.077 19.1763 0.065259 0.356713 7.635797
2009-09-07 07:19:26 51°15.496 2°49.056 19.1688 0.065259 0.356725 7.635797
2009-09-07 07:19:31 51°15.5 2°49.029 19.1854 0.065259 0.356731 7.635797
2009-09-07 07:19:36 51°15.503 2°49.002 19.1952 0.065259 0.356731 7.635797
2009-09-07 07:19:42 51°15.507 2°48.97 19.1738 0.065259 0.356738 7.635797
2009-09-07 07:19:47 51°15.51 2°48.944 19.1792 0.065259 0.356744 7.635797
2009-09-07 07:19:51 51°15.512 2°48.922 19.1714 0.065259 0.35675 7.635797
2009-09-07 07:19:56 51°15.515 2°48.896 19.1771 0.065259 0.356744 7.635797
2009-09-07 07:20:01 51°15.518 2°48.869 19.1745 0.065259 0.35675 7.635797
2009-09-07 07:20:07 51°15.522 2°48.837 19.1853 0.065259 0.35675 7.635797
2009-09-07 07:20:11 51°15.524 2°48.816 19.1787 0.065259 0.356763 7.635797
2009-09-07 07:20:15 51°15.527 2°48.795 19.1808 0.065259 0.356769 7.635797
2009-09-07 07:20:22 51°15.53 2°48.757 19.1589 0.065259 0.356776 7.635797
2009-09-07 07:20:26 51°15.533 2°48.736 19.1655 0.065259 0.356776 7.635797
2009-09-07 07:20:31 51°15.536 2°48.709 19.1774 0.065259 0.356782 7.635797
2009-09-07 07:20:37 51°15.539 2°48.678 19.1837 0.065259 0.356782 7.635797
2009-09-07 07:20:42 51°15.543 2°48.651 19.1665 0.065259 0.356782 7.635797
2009-09-07 07:20:46 51°15.545 2°48.63 19.1704 0.065259 0.356795 7.635797
2009-09-07 07:20:52 51°15.549 2°48.598 19.1871 0.065259 0.356801 7.635797
2009-09-07 07:20:56 51°15.552 2°48.577 19.1899 0.065259 0.356801 7.635797
2009-09-07 07:21:02 51°15.556 2°48.545 19.1789 0.065259 0.356814 7.635797
2009-09-07 07:21:06 51°15.559 2°48.524 19.1877 0.065259 0.356814 7.635797
2009-09-07 07:21:11 51°15.562 2°48.498 19.1767 0.065259 0.356814 7.635797
2009-09-07 07:21:17 51°15.566 2°48.466 19.188 0.065259 0.35682 7.635797
2009-09-07 07:21:22 51°15.569 2°48.439 19.185 0.065259 0.356826 7.635797
2009-09-07 07:21:27 51°15.573 2°48.413 19.1948 0.065259 0.356832 7.635797
2009-09-07 07:21:31 51°15.575 2°48.391 19.1945 0.065259 0.356839 7.635797
2009-09-07 07:21:35 51°15.578 2°48.37 19.1834 0.065259 0.356839 7.635797
2009-09-07 07:21:42 51°15.582 2°48.333 19.1943 0.065259 0.356839 7.635797
2009-09-07 07:21:47 51°15.586 2°48.306 19.192 0.065259 0.356845 7.635797
2009-09-07 07:21:51 51°15.589 2°48.285 19.2019 0.065259 0.356851 7.635797
2009-09-07 07:21:56 51°15.592 2°48.258 19.2053 0.065259 0.356858 7.635797
2009-09-07 07:22:02 51°15.596 2°48.226 19.177 0.065259 0.356864 7.635797
2009-09-07 07:22:07 51°15.599 2°48.199 19.1986 0.065259 0.356864 7.635797
2009-09-07 07:22:11 51°15.601 2°48.178 19.1955 0.065259 0.35687 7.635797
2009-09-07 07:22:16 51°15.604 2°48.151 19.1938 0.065259 0.356877 7.635797
2009-09-07 07:22:21 51°15.607 2°48.124 19.1984 0.065259 0.356883 7.635797
2009-09-07 07:22:27 51°15.61 2°48.092 19.199 0.065259 0.356883 7.635797
2009-09-07 07:22:31 51°15.612 2°48.071 19.1919 0.065259 0.356889 7.635797
2009-09-07 07:22:36 51°15.615 2°48.044 19.193 0.065259 0.356889 7.635797
2009-09-07 07:22:42 51°15.619 2°48.012 19.2029 0.065259 0.356896 7.635797
2009-09-07 07:22:47 51°15.622 2°47.986 19.2007 0.065259 0.356896 7.635797
2009-09-07 07:22:51 51°15.624 2°47.964 19.2118 0.065259 0.356902 7.635797
2009-09-07 07:22:56 51°15.627 2°47.938 19.2053 0.065259 0.356915 7.635797
2009-09-07 07:23:01 51°15.63 2°47.911 19.2059 0.065259 0.356915 7.635797
2009-09-07 07:23:07 51°15.634 2°47.879 19.2162 0.065259 0.356915 7.635797
2009-09-07 07:23:11 51°15.636 2°47.857 19.2092 0.065259 0.356921 7.635797
2009-09-07 07:23:17 51°15.64 2°47.825 19.2032 0.065259 0.356927 7.635797
2009-09-07 07:23:22 51°15.642 2°47.798 19.203 0.065259 0.356933 7.600973
2009-09-07 07:23:26 51°15.645 2°47.777 19.2143 0.065259 0.35694 7.600973
2009-09-07 07:23:31 51°15.648 2°47.75 19.2104 0.065259 0.356946 7.600973
2009-09-07 07:23:37 51°15.651 2°47.718 19.1981 0.065259 0.356946 7.600973
2009-09-07 07:23:42 51°15.654 2°47.691 19.2101 0.065259 0.356952 7.600973
2009-09-07 07:23:46 51°15.656 2°47.67 19.2183 0.065259 0.356952 7.600973
2009-09-07 07:23:51 51°15.66 2°47.643 19.2148 0.065259 0.356959 7.600973
2009-09-07 07:23:57 51°15.664 2°47.611 19.2101 0.065259 0.356965 7.635797
2009-09-07 07:24:02 51°15.667 2°47.584 19.2067 0.065259 0.356978 7.635797
2009-09-07 07:24:07 51°15.671 2°47.557 19.2074 0.065259 0.356978 7.635797
2009-09-07 07:24:11 51°15.673 2°47.536 19.1994 0.065259 0.356978 7.635797
2009-09-07 07:24:16 51°15.677 2°47.509 19.2149 0.065259 0.356984 7.635797
2009-09-07 07:24:22 51°15.681 2°47.477 19.2077 0.065259 0.35699 7.635797
2009-09-07 07:24:26 51°15.684 2°47.456 19.2131 0.065259 0.356997 7.600973
2009-09-07 07:24:31 51°15.688 2°47.429 19.2195 0.065259 0.356997 7.635797
2009-09-07 07:24:36 51°15.692 2°47.402 19.2191 0.065259 0.356997 7.635797
2009-09-07 07:24:41 51°15.695 2°47.375 19.2203 0.065259 0.357003 7.600973
2009-09-07 07:24:47 51°15.7 2°47.343 19.2133 0.065259 0.357009 7.635797
2009-09-07 07:24:51 51°15.702 2°47.322 19.2142 0.065259 0.357016 7.600973
2009-09-07 07:24:55 51°15.705 2°47.3 19.2223 0.065259 0.357022 7.600973
2009-09-07 07:25:02 51°15.71 2°47.262 19.2151 0.065259 0.357028 7.600973
2009-09-07 07:25:06 51°15.713 2°47.241 19.2193 0.065259 0.357028 7.600973
2009-09-07 07:25:11 51°15.717 2°47.214 19.2332 0.065259 0.357028 7.600973
2009-09-07 07:25:17 51°15.721 2°47.182 19.221 0.065259 0.357035 7.600973
2009-09-07 07:25:22 51°15.724 2°47.155 19.2251 0.065259 0.357041 7.600973
2009-09-07 07:25:26 51°15.727 2°47.134 19.23 0.065259 0.357047 7.635797
2009-09-07 07:25:31 51°15.731 2°47.107 19.2302 0.065259 0.357054 7.635797
2009-09-07 07:25:37 51°15.735 2°47.074 19.2202 0.065259 0.357054 7.635797
2009-09-07 07:25:42 51°15.738 2°47.047 19.229 0.065259 0.357054 7.600973
2009-09-07 07:25:47 51°15.741 2°47.02 19.2281 0.065259 0.357066 7.600973
2009-09-07 07:25:51 51°15.744 2°46.999 19.2377 0.065259 0.357066 7.600973
2009-09-07 07:25:56 51°15.748 2°46.972 19.1986 0.065259 0.357072 7.600973
2009-09-07 07:26:02 51°15.752 2°46.939 19.2419 0.065259 0.357079 7.600973
2009-09-07 07:26:06 51°15.755 2°46.918 19.2126 0.065259 0.357079 7.600973
2009-09-07 07:26:11 51°15.759 2°46.891 19.23 0.065259 0.357085 7.600973
2009-09-07 07:26:16 51°15.762 2°46.864 19.2162 0.065259 0.357091 7.600973
2009-09-07 07:26:22 51°15.767 2°46.832 19.2437 0.065259 0.357091 7.600973
2009-09-07 07:26:27 51°15.771 2°46.805 19.2387 0.065259 0.357098 7.600973
2009-09-07 07:26:31 51°15.775 2°46.784 19.2519 0.065259 0.357104 7.600973
2009-09-07 07:26:35 51°15.778 2°46.762 19.2394 0.065259 0.357104 7.600973
2009-09-07 07:26:41 51°15.783 2°46.73 19.2423 0.065259 0.35711 7.600973
2009-09-07 07:26:47 51°15.788 2°46.698 19.2366 0.065259 0.357117 7.600973
2009-09-07 07:26:51 51°15.791 2°46.676 19.2255 0.065259 0.357123 7.600973
2009-09-07 07:26:56 51°15.795 2°46.649 19.2405 0.065259 0.357123 7.600973
2009-09-07 07:27:02 51°15.8 2°46.617 19.2403 0.065259 0.357129 7.600973
2009-09-07 07:27:07 51°15.804 2°46.591 19.2174 0.065259 0.357129 7.600973
2009-09-07 07:27:11 51°15.808 2°46.569 19.2437 0.065259 0.357136 7.600973
2009-09-07 07:27:16 51°15.813 2°46.543 19.2493 0.065259 0.357142 7.600973
2009-09-07 07:27:22 51°15.819 2°46.512 19.2396 0.065259 0.357148 7.600973
2009-09-07 07:27:26 51°15.824 2°46.491 19.2524 0.065259 0.357155 7.600973
2009-09-07 07:27:31 51°15.829 2°46.465 19.249 0.065259 0.357161 7.600973
2009-09-07 07:27:36 51°15.835 2°46.44 19.2565 0.065259 0.357161 7.600973
2009-09-07 07:27:41 51°15.841 2°46.414 19.2511 0.065259 0.357167 7.600973
2009-09-07 07:27:47 51°15.848 2°46.383 19.2523 0.065259 0.357167 7.600973
2009-09-07 07:27:51 51°15.853 2°46.363 19.2353 0.065259 0.357174 7.600973
2009-09-07 07:27:57 51°15.86 2°46.332 19.2655 0.065259 0.35718 7.600973
2009-09-07 07:28:02 51°15.867 2°46.307 19.2622 0.065259 0.357186 7.600973
2009-09-07 07:28:07 51°15.873 2°46.281 19.2457 0.065259 0.357186 7.600973
2009-09-07 07:28:11 51°15.878 2°46.261 19.2524 0.065259 0.357193 7.600973
2009-09-07 07:28:17 51°15.885 2°46.23 19.2551 0.065156 0.356612 7.600973
2009-09-07 07:28:22 51°15.89 2°46.204 19.2639 0.065156 0.356618 7.600973
2009-09-07 07:28:26 51°15.895 2°46.184 19.2504 0.065156 0.356624 7.600973
2009-09-07 07:28:31 51°15.901 2°46.158 19.2515 0.065156 0.356624 7.600973
2009-09-07 07:28:36 51°15.907 2°46.132 19.2613 0.065156 0.356624 7.600973
2009-09-07 07:28:42 51°15.915 2°46.102 19.2472 0.065156 0.356624 7.600973
2009-09-07 07:28:47 51°15.921 2°46.077 19.2505 0.065156 0.356631 7.600973
2009-09-07 07:28:51 51°15.925 2°46.056 19.2503 0.065156 0.356637 7.600973
2009-09-07 07:28:56 51°15.932 2°46.031 19.2616 0.065156 0.356637 7.600973
2009-09-07 07:29:02 51°15.939 2°46.001 19.2562 0.065156 0.35665 7.600973
2009-09-07 07:29:06 51°15.944 2°45.981 19.2694 0.065156 0.35665 7.600973
2009-09-07 07:29:11 51°15.951 2°45.955 19.2575 0.065156 0.356656 7.600973
2009-09-07 07:29:16 51°15.957 2°45.93 19.2701 0.065156 0.356656 7.600973
2009-09-07 07:29:22 51°15.965 2°45.9 19.2849 0.065156 0.356669 7.600973
2009-09-07 07:29:27 51°15.97 2°45.875 19.2729 0.065156 0.356669 7.600973
2009-09-07 07:29:31 51°15.975 2°45.855 19.2575 0.065156 0.356675 7.600973
2009-09-07 07:29:36 51°15.981 2°45.83 19.2719 0.065156 0.356675 7.600973
2009-09-07 07:29:41 51°15.987 2°45.805 19.2739 0.065156 0.356681 7.600973
2009-09-07 07:29:47 51°15.995 2°45.775 19.2693 0.065156 0.356681 7.566149
2009-09-07 07:29:51 51°16 2°45.755 19.2639 0.065156 0.356681 7.566149
2009-09-07 07:29:57 51°16.008 2°45.726 19.2613 0.065156 0.356694 7.600973
2009-09-07 07:30:02 51°16.015 2°45.702 19.2709 0.065156 0.356694 7.600973
2009-09-07 07:30:06 51°16.02 2°45.682 19.2803 0.065156 0.356694 7.600973
2009-09-07 07:30:11 51°16.027 2°45.658 19.2747 0.065156 0.3567 7.600973
2009-09-07 07:30:17 51°16.035 2°45.629 19.2751 0.065156 0.356706 7.600973
2009-09-07 07:30:22 51°16.042 2°45.605 19.2682 0.065156 0.356713 7.600973
2009-09-07 07:30:26 51°16.047 2°45.586 19.2885 0.065156 0.356719 7.600973
2009-09-07 07:30:31 51°16.054 2°45.561 19.2825 0.065156 0.356719 7.600973
2009-09-07 07:30:37 51°16.063 2°45.533 19.2816 0.065156 0.356719 7.600973
2009-09-07 07:30:42 51°16.07 2°45.508 19.2873 0.065156 0.356725 7.600973
2009-09-07 07:30:47 51°16.077 2°45.485 19.2855 0.065156 0.356732 7.600973
2009-09-07 07:30:51 51°16.082 2°45.465 19.2869 0.065156 0.356732 7.566149
2009-09-07 07:30:56 51°16.09 2°45.442 19.2887 0.065156 0.356738 7.600973
2009-09-07 07:31:02 51°16.098 2°45.413 19.2891 0.065156 0.356744 7.566149
2009-09-07 07:31:06 51°16.104 2°45.394 19.2717 0.065156 0.356744 7.566149
2009-09-07 07:31:11 51°16.111 2°45.369 19.286 0.065156 0.356744 7.600973
2009-09-07 07:31:15 51°16.116 2°45.35 19.2811 0.065156 0.356751 7.600973
2009-09-07 07:31:22 51°16.126 2°45.317 19.2912 0.065156 0.356757 7.566149
2009-09-07 07:31:27 51°16.134 2°45.293 19.2717 0.065156 0.356757 7.600973
2009-09-07 07:31:31 51°16.14 2°45.274 19.2902 0.065156 0.356763 7.600973
2009-09-07 07:31:36 51°16.147 2°45.251 19.2754 0.065156 0.356763 7.600973
2009-09-07 07:31:42 51°16.157 2°45.223 19.2514 0.065156 0.356776 7.600973
2009-09-07 07:31:47 51°16.165 2°45.2 19.2928 0.065156 0.356776 7.600973
2009-09-07 07:31:51 51°16.172 2°45.183 19.283 0.065156 0.356782 7.600973
2009-09-07 07:31:57 51°16.183 2°45.156 19.2804 0.065156 0.356789 7.600973
2009-09-07 07:32:02 51°16.192 2°45.135 19.291 0.065156 0.356795 7.566149
2009-09-07 07:32:06 51°16.2 2°45.118 19.2906 0.065156 0.356795 7.566149
2009-09-07 07:32:11 51°16.209 2°45.097 19.2996 0.065156 0.356801 7.600973
2009-09-07 07:32:17 51°16.221 2°45.072 19.2892 0.065156 0.356808 7.566149
2009-09-07 07:32:22 51°16.231 2°45.052 19.2937 0.065156 0.356814 7.600973
2009-09-07 07:32:27 51°16.24 2°45.031 19.3005 0.065156 0.356814 7.566149
2009-09-07 07:32:31 51°16.249 2°45.015 19.2899 0.065156 0.35682 7.600973
2009-09-07 07:32:36 51°16.259 2°44.995 19.312 0.065156 0.35682 7.600973
2009-09-07 07:32:42 51°16.271 2°44.971 19.2881 0.065156 0.35682 7.600973
2009-09-07 07:32:46 51°16.279 2°44.955 19.3038 0.065156 0.356827 7.600973
2009-09-07 07:32:51 51°16.289 2°44.936 19.3043 0.065156 0.356827 7.600973
2009-09-07 07:32:57 51°16.301 2°44.912 19.2874 0.065156 0.356833 7.600973
2009-09-07 07:33:02 51°16.312 2°44.892 19.3139 0.065156 0.356839 7.600973
2009-09-07 07:33:07 51°16.322 2°44.873 19.3065 0.065156 0.356839 7.600973
2009-09-07 07:33:11 51°16.331 2°44.857 19.3172 0.065156 0.356839 7.566149
2009-09-07 07:33:15 51°16.339 2°44.842 19.3126 0.065156 0.356852 7.566149
2009-09-07 07:33:22 51°16.354 2°44.814 19.299 0.065156 0.356852 7.566149
2009-09-07 07:33:27 51°16.364 2°44.794 19.3164 0.065156 0.356858 7.566149
2009-09-07 07:33:31 51°16.372 2°44.778 19.2986 0.065156 0.356865 7.566149
2009-09-07 07:33:36 51°16.383 2°44.758 19.3096 0.065156 0.356865 7.566149
2009-09-07 07:33:42 51°16.395 2°44.734 19.3128 0.065156 0.356865 7.566149
2009-09-07 07:33:47 51°16.405 2°44.714 19.3005 0.065156 0.356871 7.566149
2009-09-07 07:33:51 51°16.414 2°44.698 19.3181 0.065156 0.356877 7.566149
2009-09-07 07:33:57 51°16.426 2°44.674 19.3192 0.065156 0.356884 7.566149
2009-09-07 07:34:02 51°16.437 2°44.654 19.3008 0.065156 0.35689 7.566149
2009-09-07 07:34:06 51°16.445 2°44.638 19.2916 0.065156 0.35689 7.566149
2009-09-07 07:34:12 51°16.458 2°44.614 19.3126 0.065156 0.35689 7.566149
2009-09-07 07:34:16 51°16.467 2°44.599 19.3028 0.065156 0.356902 7.566149
2009-09-07 07:34:22 51°16.48 2°44.576 19.3061 0.065156 0.356902 7.566149
2009-09-07 07:34:26 51°16.489 2°44.561 19.3246 0.065156 0.356909 7.566149
2009-09-07 07:34:31 51°16.5 2°44.542 19.3186 0.065156 0.356909 7.566149
2009-09-07 07:34:36 51°16.512 2°44.524 19.316 0.065156 0.356909 7.566149
2009-09-07 07:34:42 51°16.525 2°44.502 19.3285 0.065156 0.356921 7.566149
2009-09-07 07:34:47 51°16.537 2°44.483 19.3185 0.065156 0.356928 7.566149
2009-09-07 07:34:51 51°16.546 2°44.468 19.3264 0.065156 0.356934 7.566149
2009-09-07 07:34:57 51°16.559 2°44.446 19.3198 0.065156 0.35694 7.566149
2009-09-07 07:35:02 51°16.571 2°44.427 19.3188 0.065156 0.356947 7.566149
2009-09-07 07:35:06 51°16.58 2°44.412 19.3299 0.065156 0.356947 7.566149
2009-09-07 07:35:11 51°16.591 2°44.394 19.3247 0.065156 0.356953 7.566149
2009-09-07 07:35:17 51°16.605 2°44.372 19.3355 0.065156 0.356959 7.566149
2009-09-07 07:35:22 51°16.617 2°44.354 19.3215 0.065156 0.356966 7.566149
2009-09-07 07:35:27 51°16.628 2°44.335 19.3246 0.065156 0.356966 7.566149
2009-09-07 07:35:31 51°16.637 2°44.321 19.337 0.065156 0.356978 7.566149
2009-09-07 07:35:36 51°16.649 2°44.303 19.3142 0.065156 0.356978 7.566149
2009-09-07 07:35:42 51°16.663 2°44.281 19.3258 0.065156 0.356985 7.566149
2009-09-07 07:35:47 51°16.675 2°44.263 19.3303 0.065156 0.356991 7.566149
2009-09-07 07:35:51 51°16.685 2°44.249 19.3327 0.065156 0.356997 7.566149
2009-09-07 07:35:56 51°16.697 2°44.232 19.3356 0.065156 0.357004 7.566149
2009-09-07 07:36:02 51°16.711 2°44.212 19.3273 0.065156 0.35701 7.566149
2009-09-07 07:36:06 51°16.721 2°44.198 19.3291 0.065156 0.35701 7.566149
2009-09-07 07:36:11 51°16.733 2°44.181 19.3212 0.065156 0.357016 7.566149
2009-09-07 07:36:16 51°16.745 2°44.164 19.3249 0.065156 0.357029 7.566149
2009-09-07 07:36:21 51°16.758 2°44.147 19.3473 0.065156 0.357029 7.566149
2009-09-07 07:36:27 51°16.772 2°44.127 19.3173 0.065156 0.357035 7.566149
2009-09-07 07:36:31 51°16.782 2°44.114 19.3517 0.065156 0.357042 7.566149
2009-09-07 07:36:37 51°16.797 2°44.094 19.3429 0.065156 0.357042 7.566149
2009-09-07 07:36:42 51°16.809 2°44.076 19.3515 0.065156 0.357048 7.566149
2009-09-07 07:36:46 51°16.819 2°44.063 19.3357 0.065156 0.357054 7.566149
2009-09-07 07:36:51 51°16.83 2°44.045 19.3367 0.065156 0.357054 7.566149
2009-09-07 07:36:57 51°16.845 2°44.025 19.3291 0.065156 0.357061 7.566149
2009-09-07 07:37:02 51°16.857 2°44.008 19.3449 0.065156 0.357061 7.566149
2009-09-07 07:37:07 51°16.869 2°43.991 19.3217 0.065156 0.357061 7.566149
2009-09-07 07:37:11 51°16.879 2°43.978 19.343 0.065156 0.357067 7.566149
2009-09-07 07:37:16 51°16.892 2°43.961 19.3322 0.065156 0.35708 7.566149
2009-09-07 07:37:22 51°16.906 2°43.94 19.3532 0.065156 0.35708 7.566149
2009-09-07 07:37:26 51°16.916 2°43.927 19.347 0.065156 0.357092 7.566149
2009-09-07 07:37:31 51°16.928 2°43.91 19.3483 0.065156 0.357092 7.566149
2009-09-07 07:37:36 51°16.941 2°43.893 19.3437 0.065156 0.357092 7.566149
2009-09-07 07:37:42 51°16.955 2°43.873 19.3499 0.065156 0.357099 7.566149
2009-09-07 07:37:47 51°16.968 2°43.856 19.3369 0.065156 0.357111 7.566149
2009-09-07 07:37:51 51°16.977 2°43.842 19.3592 0.065156 0.357111 7.566149
2009-09-07 07:37:56 51°16.99 2°43.825 19.3523 0.065156 0.357118 7.566149
2009-09-07 07:38:02 51°17.004 2°43.805 19.3603 0.065156 0.357124 7.531325
2009-09-07 07:38:07 51°17.017 2°43.788 19.3318 0.065156 0.357124 7.531325
2009-09-07 07:38:11 51°17.026 2°43.774 19.3608 0.065156 0.35713 7.566149
2009-09-07 07:38:15 51°17.036 2°43.761 19.3633 0.065156 0.35713 7.566149
2009-09-07 07:38:21 51°17.051 2°43.74 19.3652 0.065156 0.357137 7.566149
2009-09-07 07:38:27 51°17.066 2°43.719 19.3593 0.065156 0.357143 7.566149
2009-09-07 07:38:31 51°17.075 2°43.705 19.3493 0.065156 0.357149 7.566149
2009-09-07 07:38:37 51°17.09 2°43.684 19.3525 0.065156 0.357149 7.566149
2009-09-07 07:38:42 51°17.102 2°43.667 19.3622 0.065156 0.357156 7.566149
2009-09-07 07:38:46 51°17.112 2°43.653 19.3628 0.065156 0.357162 7.566149
2009-09-07 07:38:52 51°17.127 2°43.632 19.3572 0.065156 0.357162 7.566149
2009-09-07 07:38:56 51°17.137 2°43.62 19.3639 0.065156 0.357169 7.566149
2009-09-07 07:39:02 51°17.152 2°43.6 19.3464 0.065156 0.357175 7.566149
2009-09-07 07:39:06 51°17.162 2°43.587 19.3541 0.065156 0.357175 7.566149
2009-09-07 07:39:11 51°17.175 2°43.572 19.3579 0.065156 0.357181 7.566149
2009-09-07 07:39:17 51°17.191 2°43.553 19.3324 0.065054 0.356612 7.566149
2009-09-07 07:39:22 51°17.204 2°43.538 19.3654 0.065156 0.357194 7.566149
2009-09-07 07:39:27 51°17.218 2°43.525 19.3575 0.065054 0.356625 7.566149
2009-09-07 07:39:31 51°17.228 2°43.513 19.3696 0.065054 0.356625 7.566149
2009-09-07 07:39:37 51°17.245 2°43.498 19.3629 0.065054 0.356625 7.566149
2009-09-07 07:39:42 51°17.259 2°43.485 19.3628 0.065156 0.357219 7.566149
2009-09-07 07:39:47 51°17.273 2°43.473 19.3575 0.065156 0.357219 7.566149
2009-09-07 07:39:51 51°17.284 2°43.463 19.3611 0.065054 0.356644 7.566149
2009-09-07 07:39:55 51°17.295 2°43.453 19.3726 0.065054 0.35665 7.566149
2009-09-07 07:40:02 51°17.315 2°43.437 19.3695 0.065054 0.356656 7.566149
2009-09-07 07:40:07 51°17.329 2°43.425 19.3843 0.065054 0.356656 7.566149
2009-09-07 07:40:11 51°17.341 2°43.416 19.3609 0.065054 0.356663 7.566149
2009-09-07 07:40:16 51°17.355 2°43.404 19.3844 0.065054 0.356663 7.566149
2009-09-07 07:40:21 51°17.37 2°43.393 19.3613 0.065054 0.356682 7.566149
2009-09-07 07:40:27 51°17.386 2°43.378 19.3874 0.065054 0.356675 7.566149
2009-09-07 07:40:31 51°17.398 2°43.37 19.3653 0.065054 0.356688 7.566149
2009-09-07 07:40:36 51°17.412 2°43.358 19.3958 0.065054 0.356688 7.566149
2009-09-07 07:40:42 51°17.43 2°43.345 19.3773 0.065054 0.356694 7.566149
2009-09-07 07:40:47 51°17.444 2°43.332 19.3788 0.065054 0.356694 7.566149
2009-09-07 07:40:51 51°17.455 2°43.323 19.382 0.065054 0.356707 7.566149
2009-09-07 07:40:56 51°17.469 2°43.311 19.3868 0.065054 0.356713 7.566149
2009-09-07 07:41:01 51°17.484 2°43.299 19.3931 0.065054 0.35672 7.566149
2009-09-07 07:41:07 51°17.501 2°43.285 19.3755 0.065054 0.35672 7.566149
2009-09-07 07:41:11 51°17.513 2°43.275 19.3638 0.065054 0.356726 7.566149
2009-09-07 07:41:17 51°17.53 2°43.261 19.3875 0.065054 0.356726 7.566149
2009-09-07 07:41:22 51°17.544 2°43.249 19.3635 0.065054 0.356739 7.566149
2009-09-07 07:41:26 51°17.556 2°43.239 19.3979 0.065054 0.356732 7.566149
2009-09-07 07:41:31 51°17.57 2°43.228 19.3866 0.065054 0.356745 7.566149
2009-09-07 07:41:37 51°17.588 2°43.213 19.3945 0.065054 0.356745 7.566149
2009-09-07 07:41:42 51°17.602 2°43.201 19.3987 0.065054 0.356745 7.566149
2009-09-07 07:41:46 51°17.613 2°43.192 19.3897 0.065054 0.356758 7.566149
2009-09-07 07:41:51 51°17.627 2°43.179 19.4164 0.065054 0.356758 7.566149
2009-09-07 07:41:57 51°17.645 2°43.165 19.3927 0.065054 0.35677 7.566149
2009-09-07 07:42:02 51°17.658 2°43.15 19.4237 0.065054 0.35677 7.566149
2009-09-07 07:42:07 51°17.672 2°43.136 19.4179 0.065054 0.35677 7.566149
2009-09-07 07:42:11 51°17.683 2°43.123 19.3917 0.065054 0.356783 7.566149
2009-09-07 07:42:16 51°17.696 2°43.106 19.4144 0.065054 0.356783 7.600973
2009-09-07 07:42:22 51°17.711 2°43.085 19.3951 0.065054 0.356789 7.566149
2009-09-07 07:42:26 51°17.721 2°43.071 19.3982 0.065054 0.356789 7.566149
2009-09-07 07:42:31 51°17.733 2°43.053 19.4041 0.065054 0.356789 7.566149
2009-09-07 07:42:36 51°17.746 2°43.034 19.413 0.065054 0.356789 7.566149
2009-09-07 07:42:41 51°17.758 2°43.015 19.3961 0.065054 0.356796 7.566149
2009-09-07 07:42:47 51°17.772 2°42.992 19.3947 0.065054 0.356802 7.566149
2009-09-07 07:42:51 51°17.781 2°42.976 19.4206 0.065054 0.356802 7.600973
2009-09-07 07:42:56 51°17.793 2°42.956 19.3861 0.065054 0.356808 7.600973
2009-09-07 07:43:01 51°17.804 2°42.936 19.4064 0.065054 0.356808 7.566149
2009-09-07 07:43:07 51°17.818 2°42.913 19.3862 0.065054 0.356808 7.566149
2009-09-07 07:43:11 51°17.826 2°42.897 19.4294 0.065054 0.356815 7.600973
2009-09-07 07:43:17 51°17.84 2°42.873 19.4334 0.065054 0.356821 7.566149
2009-09-07 07:43:22 51°17.851 2°42.852 19.4052 0.065054 0.356827 7.600973
2009-09-07 07:43:26 51°17.859 2°42.835 19.4174 0.065054 0.356827 7.600973
2009-09-07 07:43:31 51°17.869 2°42.814 19.4245 0.065054 0.356834 7.600973
2009-09-07 07:43:37 51°17.88 2°42.788 19.4189 0.065054 0.356834 7.600973
2009-09-07 07:43:42 51°17.89 2°42.766 19.4219 0.065054 0.35684 7.600973
2009-09-07 07:43:47 51°17.899 2°42.744 19.4218 0.065054 0.35684 7.600973
2009-09-07 07:43:51 51°17.907 2°42.727 19.4221 0.065054 0.356846 7.600973
2009-09-07 07:43:56 51°17.915 2°42.704 19.4221 0.065054 0.356846 7.600973
2009-09-07 07:44:02 51°17.926 2°42.677 19.4074 0.065054 0.356846 7.600973
2009-09-07 07:44:06 51°17.933 2°42.659 19.4333 0.065054 0.356846 7.600973
2009-09-07 07:44:11 51°17.942 2°42.636 19.4112 0.065054 0.356853 7.600973
2009-09-07 07:44:17 51°17.952 2°42.609 19.4269 0.065054 0.356853 7.600973
2009-09-07 07:44:22 51°17.961 2°42.586 19.4282 0.065054 0.356859 7.600973
2009-09-07 07:44:27 51°17.97 2°42.564 19.4197 0.065054 0.356859 7.600973
2009-09-07 07:44:31 51°17.977 2°42.546 19.4118 0.065054 0.356865 7.600973
2009-09-07 07:44:35 51°17.984 2°42.527 19.4356 0.065054 0.356865 7.600973
2009-09-07 07:44:42 51°17.997 2°42.496 19.4105 0.065054 0.356872 7.600973
2009-09-07 07:44:47 51°18.005 2°42.473 19.4227 0.065054 0.356878 7.600973
2009-09-07 07:44:51 51°18.012 2°42.455 19.4406 0.065054 0.356878 7.600973
2009-09-07 07:44:56 51°18.021 2°42.432 19.4323 0.065054 0.356884 7.600973
2009-09-07 07:45:01 51°18.03 2°42.409 19.4221 0.065054 0.356891 7.600973
2009-09-07 07:45:07 51°18.04 2°42.383 19.432 0.065054 0.356891 7.600973
2009-09-07 07:45:11 51°18.047 2°42.365 19.4401 0.065054 0.356897 7.566149
2009-09-07 07:45:17 51°18.058 2°42.338 19.4424 0.065054 0.356897 7.600973
2009-09-07 07:45:22 51°18.067 2°42.315 19.4314 0.065054 0.356897 7.600973
2009-09-07 07:45:27 51°18.075 2°42.293 19.4277 0.065054 0.356903 7.600973
2009-09-07 07:45:32 51°18.084 2°42.27 19.4411 0.065054 0.356903 7.600973
2009-09-07 07:45:36 51°18.091 2°42.252 19.4314 0.065054 0.356903 7.600973
2009-09-07 07:45:42 51°18.102 2°42.225 19.4373 0.065054 0.35691 7.600973
2009-09-07 07:45:46 51°18.109 2°42.208 19.4341 0.065054 0.356916 7.600973
2009-09-07 07:45:51 51°18.117 2°42.185 19.4522 0.065054 0.356922 7.600973
2009-09-07 07:45:56 51°18.126 2°42.163 19.435 0.065054 0.356929 7.600973
2009-09-07 07:46:02 51°18.137 2°42.135 19.4341 0.065054 0.356929 7.600973
2009-09-07 07:46:07 51°18.145 2°42.113 19.4259 0.065054 0.356929 7.600973
2009-09-07 07:46:11 51°18.153 2°42.095 19.4371 0.065054 0.356935 7.600973
2009-09-07 07:46:17 51°18.163 2°42.068 19.4479 0.065054 0.356941 7.600973
2009-09-07 07:46:22 51°18.172 2°42.046 19.4394 0.065054 0.356948 7.600973
2009-09-07 07:46:26 51°18.179 2°42.028 19.4408 0.065054 0.356948 7.600973
2009-09-07 07:46:31 51°18.188 2°42.006 19.4503 0.065054 0.356954 7.600973
2009-09-07 07:46:37 51°18.198 2°41.979 19.4511 0.065054 0.356954 7.600973
2009-09-07 07:46:42 51°18.207 2°41.956 19.4607 0.065054 0.356961 7.600973
2009-09-07 07:46:47 51°18.217 2°41.934 19.4479 0.065054 0.356967 7.600973
2009-09-07 07:46:51 51°18.223 2°41.916 19.4554 0.065054 0.356967 7.600973
2009-09-07 07:46:56 51°18.232 2°41.894 19.4608 0.065054 0.356973 7.600973
2009-09-07 07:47:02 51°18.243 2°41.867 19.4521 0.065054 0.356973 7.600973
2009-09-07 07:47:07 51°18.252 2°41.844 19.4619 0.065054 0.356973 7.600973
2009-09-07 07:47:11 51°18.259 2°41.826 19.4603 0.065054 0.356986 7.600973
2009-09-07 07:47:16 51°18.267 2°41.803 19.4675 0.065054 0.356992 7.600973
2009-09-07 07:47:22 51°18.278 2°41.776 19.4608 0.065054 0.356999 7.600973
2009-09-07 07:47:26 51°18.284 2°41.758 19.4633 0.065054 0.357005 7.600973
2009-09-07 07:47:31 51°18.293 2°41.735 19.4497 0.065054 0.357005 7.600973
2009-09-07 07:47:36 51°18.301 2°41.712 19.4683 0.065054 0.357005 7.600973
2009-09-07 07:47:41 51°18.31 2°41.689 19.4657 0.065054 0.357011 7.600973
2009-09-07 07:47:47 51°18.32 2°41.662 19.4672 0.065054 0.357011 7.600973
2009-09-07 07:47:51 51°18.327 2°41.644 19.4597 0.065054 0.357024 7.600973
2009-09-07 07:47:56 51°18.335 2°41.621 19.4716 0.065054 0.357024 7.600973
2009-09-07 07:48:01 51°18.344 2°41.598 19.4485 0.065054 0.35703 7.600973
2009-09-07 07:48:07 51°18.354 2°41.571 19.4799 0.065054 0.35703 7.600973
2009-09-07 07:48:11 51°18.361 2°41.553 19.4738 0.065054 0.357043 7.600973
2009-09-07 07:48:17 51°18.372 2°41.527 19.4675 0.065054 0.357043 7.600973
2009-09-07 07:48:22 51°18.381 2°41.505 19.4752 0.065054 0.357049 7.600973
2009-09-07 07:48:26 51°18.388 2°41.487 19.4744 0.065054 0.357056 7.600973
2009-09-07 07:48:31 51°18.397 2°41.465 19.4761 0.065054 0.357062 7.600973
2009-09-07 07:48:37 51°18.408 2°41.438 19.4821 0.065054 0.357062 7.600973
2009-09-07 07:48:42 51°18.417 2°41.416 19.4784 0.065054 0.357068 7.600973
2009-09-07 07:48:47 51°18.426 2°41.394 19.4631 0.065054 0.357068 7.600973
2009-09-07 07:48:51 51°18.433 2°41.376 19.4795 0.065054 0.357075 7.600973
2009-09-07 07:48:56 51°18.443 2°41.354 19.4644 0.065054 0.357081 7.984038
2009-09-07 07:49:02 51°18.453 2°41.327 19.4794 0.065054 0.357081 8.08851
2009-09-07 07:49:06 51°18.461 2°41.31 19.4942 0.065054 0.357081 8.08851
2009-09-07 07:49:11 51°18.471 2°41.288 19.4694 0.065054 0.357087 8.158158
2009-09-07 07:49:16 51°18.479 2°41.265 19.4863 0.065054 0.357094 8.192982
2009-09-07 07:49:22 51°18.49 2°41.238 19.4675 0.065054 0.3571 8.192982
2009-09-07 07:49:27 51°18.499 2°41.216 19.4924 0.065054 0.3571 8.192982
2009-09-07 07:49:31 51°18.507 2°41.198 19.4918 0.065054 0.3571 8.192982
2009-09-07 07:49:35 51°18.514 2°41.18 19.4996 0.065054 0.3571 8.192982
2009-09-07 07:49:42 51°18.527 2°41.149 19.4768 0.065054 0.357113 8.227806
2009-09-07 07:49:47 51°18.536 2°41.127 19.489 0.065054 0.357113 8.192982
2009-09-07 07:49:51 51°18.543 2°41.109 19.5034 0.065054 0.357113 8.192982
2009-09-07 07:49:57 51°18.554 2°41.082 19.4821 0.065054 0.357126 8.192982
2009-09-07 07:50:02 51°18.563 2°41.06 19.4902 0.065054 0.357126 8.192982
2009-09-07 07:50:06 51°18.571 2°41.042 19.5031 0.065054 0.357126 8.192982
2009-09-07 07:50:11 51°18.58 2°41.02 19.5033 0.065054 0.357132 8.192982
2009-09-07 07:50:17 51°18.591 2°40.992 19.4979 0.065054 0.357132 8.158158
2009-09-07 07:50:22 51°18.6 2°40.97 19.5041 0.065054 0.357138 8.158158
2009-09-07 07:50:27 51°18.609 2°40.948 19.5049 0.065054 0.357145 8.158158
2009-09-07 07:50:31 51°18.617 2°40.929 19.4814 0.065054 0.357145 8.158158
2009-09-07 07:50:36 51°18.626 2°40.907 19.5154 0.065054 0.357145 8.158158
2009-09-07 07:50:42 51°18.637 2°40.88 19.4964 0.065054 0.357157 8.158158
2009-09-07 07:50:46 51°18.645 2°40.862 19.4948 0.065054 0.357157 8.158158
2009-09-07 07:50:51 51°18.654 2°40.839 19.4999 0.065054 0.357164 8.158158
2009-09-07 07:50:57 51°18.665 2°40.812 19.5027 0.065054 0.357164 8.158158
2009-09-07 07:51:02 51°18.675 2°40.789 19.4901 0.065054 0.35717 8.158158
2009-09-07 07:51:06 51°18.682 2°40.771 19.5024 0.065054 0.35717 8.158158
2009-09-07 07:51:11 51°18.692 2°40.748 19.5007 0.065054 0.357176 8.158158
2009-09-07 07:51:16 51°18.702 2°40.726 19.5122 0.065054 0.357176 8.158158
2009-09-07 07:51:22 51°18.713 2°40.699 19.4934 0.065054 0.357183 8.123334
2009-09-07 07:51:27 51°18.722 2°40.676 19.5169 0.065054 0.357189 8.158158
2009-09-07 07:51:31 51°18.73 2°40.658 19.5139 0.065054 0.357189 8.158158
2009-09-07 07:51:36 51°18.739 2°40.636 19.495 0.065054 0.357189 8.158158
2009-09-07 07:51:41 51°18.748 2°40.613 19.5191 0.065054 0.357195 8.158158
2009-09-07 07:51:47 51°18.76 2°40.586 19.5215 0.065054 0.357195 8.158158
2009-09-07 07:51:51 51°18.767 2°40.568 19.5261 0.065054 0.357208 8.158158
2009-09-07 07:51:56 51°18.776 2°40.544 19.5236 0.065054 0.357208 8.158158
2009-09-07 07:52:02 51°18.787 2°40.516 19.5251 0.065054 0.357208 8.158158
2009-09-07 07:52:07 51°18.796 2°40.493 19.5031 0.065054 0.357208 8.158158
2009-09-07 07:52:11 51°18.804 2°40.475 19.5222 0.065054 0.357214 8.158158
2009-09-07 07:52:16 51°18.814 2°40.452 19.5247 0.065054 0.357214 8.158158
2009-09-07 07:52:21 51°18.824 2°40.43 19.5264 0.065054 0.357227 8.158158
2009-09-07 07:52:26 51°18.833 2°40.407 19.5179 0.065054 0.357227 8.158158
2009-09-07 07:52:31 51°18.842 2°40.384 19.5306 0.065054 0.357234 8.158158
2009-09-07 07:52:37 51°18.853 2°40.357 19.5155 0.065054 0.357234 8.158158
2009-09-07 07:52:41 51°18.861 2°40.338 19.5186 0.065054 0.35724 8.158158
2009-09-07 07:52:46 51°18.87 2°40.316 19.53 0.065054 0.35724 8.192982
2009-09-07 07:52:51 51°18.879 2°40.293 19.5329 0.065054 0.357253 8.158158
2009-09-07 07:52:57 51°18.89 2°40.265 19.5147 0.065054 0.357253 8.192982
2009-09-07 07:53:02 51°18.899 2°40.243 19.5206 0.065054 0.357253 8.192982
2009-09-07 07:53:06 51°18.906 2°40.225 19.5334 0.065054 0.357253 8.192982
2009-09-07 07:53:11 51°18.916 2°40.203 19.5334 0.065054 0.357253 8.192982
2009-09-07 07:53:17 51°18.927 2°40.176 19.5412 0.065054 0.357265 8.192982
2009-09-07 07:53:22 51°18.937 2°40.154 19.5357 0.065054 0.357272 8.192982
2009-09-07 07:53:27 51°18.946 2°40.131 19.5333 0.065054 0.357272 8.192982
2009-09-07 07:53:31 51°18.954 2°40.114 19.5279 0.065054 0.357278 8.192982
2009-09-07 07:53:37 51°18.964 2°40.087 19.5408 0.065054 0.357278 8.192982
2009-09-07 07:53:42 51°18.974 2°40.064 19.5417 0.065054 0.357278 8.192982
2009-09-07 07:53:47 51°18.983 2°40.042 19.5417 0.064951 0.356701 8.227806
2009-09-07 07:53:51 51°18.99 2°40.024 19.5521 0.065054 0.357291 8.192982
2009-09-07 07:53:56 51°19 2°40.002 19.5561 0.065054 0.357297 8.227806
2009-09-07 07:54:02 51°19.01 2°39.975 19.5214 0.064951 0.35672 8.227806
2009-09-07 07:54:07 51°19.019 2°39.952 19.5445 0.064951 0.35672 8.227806
2009-09-07 07:54:11 51°19.027 2°39.934 19.5385 0.065054 0.357303 8.227806
2009-09-07 07:54:16 51°19.036 2°39.912 19.5287 0.064951 0.35672 8.227806
2009-09-07 07:54:21 51°19.045 2°39.89 19.5541 0.064951 0.356727 8.227806
2009-09-07 07:54:26 51°19.054 2°39.868 19.5385 0.064951 0.356733 8.227806
2009-09-07 07:54:31 51°19.064 2°39.846 19.5491 0.064951 0.35674 8.227806
2009-09-07 07:54:37 51°19.075 2°39.819 19.5504 0.064951 0.35674 8.227806
2009-09-07 07:54:41 51°19.082 2°39.801 19.5506 0.064951 0.356746 8.227806
2009-09-07 07:54:46 51°19.091 2°39.779 19.5491 0.064951 0.356746 8.26263
2009-09-07 07:54:51 51°19.1 2°39.757 19.5504 0.064951 0.356752 8.26263
2009-09-07 07:54:57 51°19.111 2°39.73 19.5578 0.064951 0.356752 8.26263
2009-09-07 07:55:02 51°19.12 2°39.708 19.5648 0.064951 0.356759 8.26263
2009-09-07 07:55:06 51°19.127 2°39.69 19.5583 0.064951 0.356759 8.26263
2009-09-07 07:55:11 51°19.137 2°39.668 19.5648 0.064951 0.356765 8.26263
2009-09-07 07:55:17 51°19.148 2°39.642 19.5642 0.064951 0.356771 8.26263
2009-09-07 07:55:22 51°19.157 2°39.62 19.5533 0.064951 0.356771 8.26263
2009-09-07 07:55:26 51°19.164 2°39.602 19.5589 0.064951 0.356778 8.297454
2009-09-07 07:55:31 51°19.173 2°39.58 19.5615 0.064951 0.356784 8.297454
2009-09-07 07:55:37 51°19.184 2°39.553 19.5739 0.064951 0.356784 8.297454
2009-09-07 07:55:42 51°19.193 2°39.531 19.5754 0.064951 0.356784 8.297454
2009-09-07 07:55:47 51°19.201 2°39.508 19.5492 0.064951 0.356797 8.297454
2009-09-07 07:55:51 51°19.207 2°39.489 19.5751 0.064951 0.356797 8.297454
2009-09-07 07:55:56 51°19.216 2°39.466 19.5699 0.064951 0.356803 8.332278
2009-09-07 07:56:02 51°19.224 2°39.437 19.5662 0.064951 0.356803 8.332278
2009-09-07 07:56:07 51°19.231 2°39.414 19.5757 0.064951 0.356803 8.332278
2009-09-07 07:56:11 51°19.237 2°39.394 19.5673 0.064951 0.356809 8.332278
2009-09-07 07:56:16 51°19.243 2°39.37 19.5734 0.064951 0.356816 8.332278
2009-09-07 07:56:22 51°19.251 2°39.341 19.5781 0.064951 0.356816 8.332278
2009-09-07 07:56:27 51°19.258 2°39.317 19.5581 0.064951 0.356822 8.332278
2009-09-07 07:56:31 51°19.264 2°39.297 19.5676 0.064951 0.356822 8.367102
2009-09-07 07:56:36 51°19.27 2°39.272 19.5791 0.064951 0.356822 8.367102
2009-09-07 07:56:41 51°19.277 2°39.248 19.566 0.064951 0.356828 8.367102
2009-09-07 07:56:46 51°19.283 2°39.223 19.583 0.064951 0.356828 8.367102
2009-09-07 07:56:51 51°19.29 2°39.198 19.5773 0.064951 0.356841 8.367102
2009-09-07 07:56:57 51°19.297 2°39.169 19.5914 0.064951 0.356841 8.367102
2009-09-07 07:57:01 51°19.302 2°39.149 19.5758 0.064951 0.356847 8.367102
2009-09-07 07:57:06 51°19.308 2°39.124 19.5803 0.064951 0.356847 8.367102
2009-09-07 07:57:11 51°19.315 2°39.099 19.5854 0.064951 0.356854 8.401926
2009-09-07 07:57:17 51°19.323 2°39.07 19.5871 0.064951 0.356854 8.401926
2009-09-07 07:57:22 51°19.329 2°39.045 19.5858 0.064951 0.356867 8.401926
2009-09-07 07:57:26 51°19.334 2°39.026 19.5887 0.064951 0.356867 8.401926
2009-09-07 07:57:31 51°19.341 2°39.001 19.5844 0.064951 0.356873 8.401926
2009-09-07 07:57:37 51°19.348 2°38.971 19.587 0.064951 0.356873 8.401926
2009-09-07 07:57:42 51°19.354 2°38.946 19.5786 0.064951 0.356873 8.43675
2009-09-07 07:57:47 51°19.36 2°38.921 19.5924 0.064951 0.356879 8.43675
2009-09-07 07:57:51 51°19.365 2°38.901 19.5963 0.064951 0.356879 8.43675
2009-09-07 07:57:56 51°19.372 2°38.876 19.5829 0.064951 0.356892 8.43675
2009-09-07 07:58:02 51°19.379 2°38.846 19.5977 0.064951 0.356892 8.43675
2009-09-07 07:58:07 51°19.386 2°38.821 19.604 0.064951 0.356892 8.43675
2009-09-07 07:58:11 51°19.391 2°38.802 19.599 0.064951 0.356898 8.471574
2009-09-07 07:58:16 51°19.398 2°38.777 19.5801 0.064951 0.356905 8.471574
2009-09-07 07:58:22 51°19.406 2°38.747 19.6126 0.064951 0.356911 8.471574
2009-09-07 07:58:27 51°19.412 2°38.723 19.6038 0.064951 0.356917 8.471574
2009-09-07 07:58:31 51°19.417 2°38.703 19.5877 0.064951 0.356917 8.471574
2009-09-07 07:58:36 51°19.424 2°38.678 19.605 0.064951 0.356917 8.471574
2009-09-07 07:58:41 51°19.43 2°38.653 19.5923 0.064951 0.356924 8.471574
2009-09-07 07:58:47 51°19.438 2°38.623 19.6135 0.064951 0.356924 8.471574
2009-09-07 07:58:51 51°19.443 2°38.603 19.6045 0.064951 0.35693 8.506398
2009-09-07 07:58:57 51°19.451 2°38.573 19.6124 0.064951 0.356936 8.506398
2009-09-07 07:59:01 51°19.457 2°38.554 19.5989 0.064951 0.356936 8.506398
2009-09-07 07:59:06 51°19.463 2°38.529 19.6126 0.064951 0.356936 8.506398
2009-09-07 07:59:11 51°19.47 2°38.505 19.6029 0.064951 0.356943 8.506398
2009-09-07 07:59:17 51°19.478 2°38.475 19.6125 0.064951 0.356949 8.506398
2009-09-07 07:59:22 51°19.485 2°38.45 19.6143 0.064951 0.356949 8.506398
2009-09-07 07:59:26 51°19.49 2°38.43 19.6173 0.064951 0.356956 8.506398
2009-09-07 07:59:31 51°19.497 2°38.406 19.6183 0.064951 0.356956 8.541223
2009-09-07 07:59:37 51°19.505 2°38.376 19.6164 0.064951 0.356956 8.541223
2009-09-07 07:59:42 51°19.511 2°38.35 19.6221 0.064951 0.356968 8.541223
2009-09-07 07:59:46 51°19.516 2°38.33 19.6208 0.064951 0.356968 8.541223
2009-09-07 07:59:51 51°19.523 2°38.305 19.6237 0.064951 0.356975 8.541223
2009-09-07 07:59:57 51°19.531 2°38.275 19.614 0.064951 0.356981 8.541223
2009-09-07 08:00:02 51°19.537 2°38.25 19.6141 0.064951 0.356981 8.576047
2009-09-07 08:00:06 51°19.542 2°38.23 19.6248 0.064951 0.356981 8.576047
2009-09-07 08:00:11 51°19.549 2°38.205 19.6287 0.064951 0.356981 8.576047
2009-09-07 08:00:16 51°19.555 2°38.18 19.6176 0.064951 0.356987 8.576047
2009-09-07 08:00:22 51°19.563 2°38.149 19.6327 0.064951 0.356994 8.576047
2009-09-07 08:00:26 51°19.569 2°38.129 19.6182 0.064951 0.357 8.610871
2009-09-07 08:00:31 51°19.575 2°38.104 19.6243 0.064951 0.357 8.610871
2009-09-07 08:00:36 51°19.582 2°38.079 19.6205 0.064951 0.357 8.610871
2009-09-07 08:00:42 51°19.59 2°38.049 19.6382 0.064951 0.357006 8.576047
2009-09-07 08:00:47 51°19.597 2°38.025 19.6349 0.064951 0.357013 8.610871
2009-09-07 08:00:51 51°19.602 2°38.004 19.6291 0.064951 0.357013 8.610871
2009-09-07 08:00:56 51°19.609 2°37.98 19.6375 0.064951 0.357019 8.610871
2009-09-07 08:01:01 51°19.615 2°37.955 19.6246 0.064951 0.357025 8.610871
2009-09-07 08:01:07 51°19.623 2°37.925 19.6346 0.064951 0.357025 8.610871
2009-09-07 08:01:11 51°19.629 2°37.905 19.6268 0.064951 0.357032 8.610871
2009-09-07 08:01:17 51°19.636 2°37.874 19.6349 0.064951 0.357032 8.645695
2009-09-07 08:01:21 51°19.642 2°37.854 19.6248 0.064951 0.357038 8.645695
2009-09-07 08:01:26 51°19.648 2°37.829 19.6352 0.064951 0.357038 8.645695
2009-09-07 08:01:31 51°19.655 2°37.804 19.6398 0.064951 0.357045 8.645695
2009-09-07 08:01:37 51°19.663 2°37.774 19.649 0.064951 0.357045 8.645695
2009-09-07 08:01:42 51°19.67 2°37.749 19.6391 0.064951 0.357051 8.645695
2009-09-07 08:01:46 51°19.675 2°37.729 19.6376 0.064951 0.357051 8.645695
2009-09-07 08:01:51 51°19.681 2°37.704 19.6531 0.064951 0.357057 8.680519
2009-09-07 08:01:57 51°19.689 2°37.674 19.6464 0.064951 0.357064 8.680519
2009-09-07 08:02:01 51°19.694 2°37.654 19.6465 0.064951 0.35707 8.680519
2009-09-07 08:02:07 51°19.702 2°37.624 19.6283 0.064951 0.35707 8.680519
2009-09-07 08:02:11 51°19.707 2°37.605 19.6493 0.064951 0.35707 8.680519
2009-09-07 08:02:17 51°19.717 2°37.576 19.6386 0.064951 0.357076 8.680519
2009-09-07 08:02:22 51°19.724 2°37.553 19.6466 0.064951 0.357083 8.715343
2009-09-07 08:02:26 51°19.731 2°37.534 19.6521 0.064951 0.357089 8.715343
2009-09-07 08:02:31 51°19.739 2°37.511 19.6526 0.064951 0.357095 8.715343
2009-09-07 08:02:36 51°19.748 2°37.488 19.6555 0.064951 0.357095 8.715343
2009-09-07 08:02:42 51°19.759 2°37.462 19.6454 0.064951 0.357102 8.715343
2009-09-07 08:02:47 51°19.767 2°37.44 19.6636 0.064951 0.357108 8.715343
2009-09-07 08:02:51 51°19.775 2°37.422 19.6577 0.064951 0.357115 8.715343
2009-09-07 08:02:56 51°19.783 2°37.399 19.6588 0.064951 0.357121 8.715343
2009-09-07 08:03:01 51°19.792 2°37.377 19.6533 0.064951 0.357127 8.750167
2009-09-07 08:03:07 51°19.803 2°37.351 19.652 0.064951 0.357127 8.750167
2009-09-07 08:03:11 51°19.811 2°37.333 19.6592 0.064951 0.357134 8.750167
2009-09-07 08:03:16 51°19.82 2°37.31 19.6508 0.064951 0.357134 8.750167
2009-09-07 08:03:21 51°19.829 2°37.288 19.6694 0.064951 0.35714 8.750167
2009-09-07 08:03:27 51°19.84 2°37.261 19.6605 0.064951 0.357146 8.750167
2009-09-07 08:03:31 51°19.847 2°37.244 19.6715 0.064951 0.357146 8.750167
2009-09-07 08:03:37 51°19.858 2°37.217 19.6735 0.064951 0.357146 8.750167
2009-09-07 08:03:41 51°19.866 2°37.199 19.6665 0.064951 0.357153 8.784991
2009-09-07 08:03:46 51°19.875 2°37.177 19.6706 0.064951 0.357159 8.784991
2009-09-07 08:03:51 51°19.884 2°37.155 19.6776 0.064951 0.357165 8.784991
2009-09-07 08:03:57 51°19.895 2°37.128 19.676 0.064951 0.357172 8.784991
2009-09-07 08:04:01 51°19.903 2°37.11 19.6803 0.064951 0.357178 8.784991
2009-09-07 08:04:07 51°19.914 2°37.084 19.6845 0.064951 0.357178 8.784991
2009-09-07 08:04:11 51°19.922 2°37.066 19.6717 0.064951 0.357185 8.784991
2009-09-07 08:04:17 51°19.932 2°37.04 19.6616 0.064951 0.357191 8.784991
2009-09-07 08:04:22 51°19.942 2°37.017 19.6672 0.064951 0.357197 8.819815
2009-09-07 08:04:26 51°19.949 2°36.999 19.665 0.064951 0.357204 8.819815
2009-09-07 08:04:31 51°19.958 2°36.977 19.6888 0.064951 0.35721 8.819815
2009-09-07 08:04:37 51°19.969 2°36.95 19.6625 0.064951 0.35721 8.819815
2009-09-07 08:04:42 51°19.978 2°36.928 19.6885 0.064951 0.35721 8.819815
2009-09-07 08:04:47 51°19.987 2°36.906 19.6709 0.064951 0.357216 8.819815
2009-09-07 08:04:51 51°19.994 2°36.888 19.6694 0.064951 0.357216 8.819815
2009-09-07 08:04:56 51°20.003 2°36.865 19.6808 0.064951 0.357223 8.819815
2009-09-07 08:05:02 51°20.014 2°36.838 19.6812 0.064951 0.357229 8.854639
2009-09-07 08:05:07 51°20.023 2°36.816 19.686 0.064951 0.357229 8.854639
2009-09-07 08:05:11 51°20.03 2°36.798 19.6921 0.064951 0.357229 8.854639
2009-09-07 08:05:16 51°20.039 2°36.775 19.6903 0.064951 0.357236 8.854639
2009-09-07 08:05:21 51°20.048 2°36.753 19.6864 0.064951 0.357242 8.854639
2009-09-07 08:05:27 51°20.059 2°36.726 19.6942 0.064951 0.357248 8.889463
2009-09-07 08:05:31 51°20.066 2°36.708 19.6928 0.064951 0.357255 8.889463
2009-09-07 08:05:36 51°20.075 2°36.686 19.6775 0.064951 0.357255 8.889463
2009-09-07 08:05:41 51°20.084 2°36.663 19.7055 0.064951 0.357255 8.889463
2009-09-07 08:05:47 51°20.095 2°36.637 19.6861 0.064951 0.357261 8.889463
2009-09-07 08:05:51 51°20.103 2°36.619 19.7048 0.064951 0.357274 8.889463
2009-09-07 08:05:57 51°20.114 2°36.592 19.696 0.064951 0.357274 8.889463
2009-09-07 08:06:01 51°20.121 2°36.575 19.7176 0.064951 0.35728 8.889463
2009-09-07 08:06:06 51°20.13 2°36.552 19.6959 0.064951 0.35728 8.889463
2009-09-07 08:06:11 51°20.139 2°36.53 19.6927 0.064951 0.35728 8.889463
2009-09-07 08:06:17 51°20.149 2°36.503 19.7161 0.064951 0.35728 8.924287
2009-09-07 08:06:22 51°20.158 2°36.481 19.7137 0.064951 0.357286 8.924287
2009-09-07 08:06:26 51°20.165 2°36.463 19.7001 0.064951 0.357293 8.924287
2009-09-07 08:06:31 51°20.174 2°36.441 19.7139 0.064951 0.357299 8.924287
2009-09-07 08:06:37 51°20.185 2°36.414 19.71 0.064951 0.357299 8.924287
2009-09-07 08:06:42 51°20.193 2°36.391 19.6947 0.064951 0.357299 8.924287
2009-09-07 08:06:46 51°20.201 2°36.373 19.7157 0.064951 0.357306 8.924287
2009-09-07 08:06:51 51°20.209 2°36.351 19.7002 0.064951 0.357312 8.924287
2009-09-07 08:06:57 51°20.22 2°36.323 19.7107 0.064951 0.357318 8.959111
2009-09-07 08:07:02 51°20.229 2°36.301 19.7148 0.064951 0.357318 8.959111
2009-09-07 08:07:07 51°20.238 2°36.279 19.717 0.064951 0.357318 8.959111
2009-09-07 08:07:11 51°20.244 2°36.26 19.7271 0.064951 0.357325 8.959111
2009-09-07 08:07:16 51°20.253 2°36.238 19.7047 0.064951 0.357331 8.959111
2009-09-07 08:07:22 51°20.264 2°36.21 19.7204 0.064951 0.357331 8.959111
2009-09-07 08:07:27 51°20.272 2°36.188 19.7067 0.064951 0.357344 8.959111
2009-09-07 08:07:31 51°20.279 2°36.169 19.7079 0.064951 0.357344 8.993935
2009-09-07 08:07:36 51°20.287 2°36.146 19.7209 0.064951 0.357344 8.993935
2009-09-07 08:07:41 51°20.296 2°36.124 19.7278 0.064951 0.35735 8.993935
2009-09-07 08:07:47 51°20.307 2°36.097 19.7248 0.064951 0.35735 8.959111
2009-09-07 08:07:51 51°20.314 2°36.079 19.7149 0.064951 0.357363 8.993935
2009-09-07 08:07:56 51°20.322 2°36.056 19.7269 0.064951 0.357363 8.993935
2009-09-07 08:08:01 51°20.331 2°36.033 19.7159 0.064951 0.357363 8.993935
2009-09-07 08:08:07 51°20.342 2°36.006 19.7314 0.064951 0.357363 8.993935
2009-09-07 08:08:11 51°20.349 2°35.988 19.7225 0.064951 0.357369 9.028759
2009-09-07 08:08:17 51°20.36 2°35.961 19.7369 0.064951 0.357376 9.028759
2009-09-07 08:08:21 51°20.367 2°35.943 19.7212 0.064951 0.357382 9.028759
2009-09-07 08:08:26 51°20.376 2°35.92 19.7371 0.064951 0.357382 9.028759
2009-09-07 08:08:31 51°20.385 2°35.898 19.7316 0.064951 0.357388 9.028759
2009-09-07 08:08:37 51°20.396 2°35.87 19.7343 0.064951 0.357388 9.028759
2009-09-07 08:08:42 51°20.404 2°35.848 19.7325 0.064951 0.357395 9.028759
2009-09-07 08:08:46 51°20.412 2°35.829 19.7305 0.064951 0.357395 9.028759
2009-09-07 08:08:51 51°20.42 2°35.807 19.7341 0.064951 0.357401 9.063583
2009-09-07 08:08:57 51°20.431 2°35.779 19.7438 0.064951 0.357408 9.063583
2009-09-07 08:09:02 51°20.44 2°35.757 19.7334 0.064848 0.35683 9.028759
2009-09-07 08:09:07 51°20.449 2°35.734 19.7385 0.064848 0.35683 9.028759
2009-09-07 08:09:11 51°20.456 2°35.716 19.7417 0.064848 0.35683 9.063583
2009-09-07 08:09:17 51°20.467 2°35.689 19.7397 0.064951 0.35742 8.924287
2009-09-07 08:09:22 51°20.476 2°35.666 19.7562 0.064848 0.356843 8.889463
2009-09-07 08:09:27 51°20.484 2°35.643 19.7306 0.064848 0.356843 8.889463
2009-09-07 08:09:31 51°20.491 2°35.624 19.7517 0.064848 0.356849 8.889463
2009-09-07 08:09:36 51°20.5 2°35.601 19.7421 0.064848 0.356849 8.889463
2009-09-07 08:09:42 51°20.511 2°35.574 19.7414 0.064848 0.356855 8.889463
2009-09-07 08:09:47 51°20.52 2°35.551 19.7514 0.064848 0.356855 8.889463
2009-09-07 08:09:51 51°20.526 2°35.532 19.7537 0.064848 0.356862 8.924287
2009-09-07 08:09:56 51°20.535 2°35.509 19.7459 0.064848 0.356874 8.889463
2009-09-07 08:10:01 51°20.544 2°35.486 19.7564 0.064848 0.356874 8.924287
2009-09-07 08:10:07 51°20.554 2°35.458 19.7419 0.064848 0.356874 8.924287
2009-09-07 08:10:11 51°20.562 2°35.44 19.754 0.064848 0.356881 8.924287
2009-09-07 08:10:17 51°20.572 2°35.412 19.7613 0.064848 0.356881 8.924287
2009-09-07 08:10:21 51°20.579 2°35.394 19.7602 0.064848 0.356887 8.924287
2009-09-07 08:10:27 51°20.59 2°35.367 19.7499 0.064848 0.356894 8.959111
2009-09-07 08:10:31 51°20.597 2°35.348 19.7642 0.064848 0.356894 8.924287
2009-09-07 08:10:37 51°20.607 2°35.321 19.7649 0.064848 0.356894 8.924287
2009-09-07 08:10:42 51°20.616 2°35.298 19.7676 0.064848 0.3569 8.959111
2009-09-07 08:10:46 51°20.623 2°35.28 19.7583 0.064848 0.356906 8.959111
2009-09-07 08:10:51 51°20.632 2°35.257 19.7654 0.064848 0.356906 8.959111
2009-09-07 08:10:57 51°20.642 2°35.229 19.7708 0.064848 0.356919 8.959111
2009-09-07 08:11:02 51°20.651 2°35.206 19.7721 0.064848 0.356919 8.959111
2009-09-07 08:11:06 51°20.658 2°35.188 19.7654 0.064848 0.356919 8.959111
2009-09-07 08:11:11 51°20.666 2°35.165 19.7735 0.064848 0.356925 8.959111
2009-09-07 08:11:17 51°20.676 2°35.138 19.768 0.064848 0.356932 8.993935
2009-09-07 08:11:22 51°20.685 2°35.115 19.7764 0.064848 0.356932 8.993935
2009-09-07 08:11:27 51°20.694 2°35.092 19.7665 0.064848 0.356938 8.993935
2009-09-07 08:11:31 51°20.7 2°35.073 19.7788 0.064848 0.356944 8.993935
2009-09-07 08:11:37 51°20.711 2°35.046 19.7823 0.064848 0.356944 8.993935
2009-09-07 08:11:42 51°20.72 2°35.023 19.7797 0.064848 0.356944 9.028759
2009-09-07 08:11:47 51°20.728 2°35 19.7737 0.064848 0.356951 9.028759
2009-09-07 08:11:51 51°20.735 2°34.981 19.775 0.064848 0.356957 8.993935
2009-09-07 08:11:56 51°20.743 2°34.958 19.7834 0.064848 0.356964 9.028759
2009-09-07 08:12:02 51°20.753 2°34.93 19.779 0.064848 0.356964 9.028759
2009-09-07 08:12:07 51°20.761 2°34.907 19.7732 0.064848 0.356964 9.028759
2009-09-07 08:12:11 51°20.768 2°34.889 19.7889 0.064848 0.35697 9.028759
2009-09-07 08:12:16 51°20.776 2°34.866 19.7916 0.064848 0.356976 9.028759
2009-09-07 08:12:21 51°20.785 2°34.843 19.7844 0.064848 0.356983 9.063583
2009-09-07 08:12:27 51°20.795 2°34.816 19.7903 0.064848 0.356983 9.063583
2009-09-07 08:12:31 51°20.802 2°34.798 19.7779 0.064848 0.356989 9.063583
2009-09-07 08:12:37 51°20.812 2°34.77 19.7879 0.064848 0.356989 9.063583